Time,TemperatureF,DewpointF,PressureIn,WindDirection,WindDirectionDegrees,WindSpeedMPH,WindSpeedGustMPH,Humidity,HourlyPrecipIn,Conditions,Clouds,dailyrainin,SoftwareType,DateUTC
2013-05-15 00:00:00,74.9,59.0,30.18,ESE,118,13.0,13.0,57,0.00,,,0.00,TxWx,2013-05-15 04:00:00,
2013-05-15 00:01:00,74.9,58.0,30.18,ESE,118,8.7,10.5,56,0.00,,,0.00,TxWx,2013-05-15 04:01:00,
2013-05-15 00:02:00,74.8,58.0,30.18,East,96,13.6,14.2,56,0.00,,,0.00,TxWx,2013-05-15 04:02:00,
2013-05-15 00:04:00,74.8,58.0,30.18,NE,51,6.2,9.9,55,0.00,,,0.00,TxWx,2013-05-15 04:04:00,
2013-05-15 00:06:00,74.8,57.0,30.18,East,96,9.9,9.9,54,0.00,,,0.00,TxWx,2013-05-15 04:06:00,
2013-05-15 00:09:00,74.8,57.0,30.18,East,96,5.6,8.7,55,0.00,,,0.00,TxWx,2013-05-15 04:09:00,
2013-05-15 00:10:00,74.8,57.0,30.18,East,96,10.5,10.5,55,0.00,,,0.00,TxWx,2013-05-15 04:10:00,
2013-05-15 00:11:00,74.8,58.0,30.18,North,6,6.2,6.2,55,0.00,,,0.00,TxWx,2013-05-15 04:11:00,
2013-05-15 00:15:00,74.7,58.0,30.18,North,6,5.6,6.8,56,0.00,,,0.00,TxWx,2013-05-15 04:15:00,
2013-05-15 00:16:00,74.7,58.0,30.18,ENE,73,9.3,9.3,56,0.00,,,0.00,TxWx,2013-05-15 04:16:00,
2013-05-15 00:17:00,74.8,58.0,30.18,ENE,73,6.8,8.7,56,0.00,,,0.00,TxWx,2013-05-15 04:17:00,
2013-05-15 00:18:00,74.6,58.0,30.18,ENE,73,9.3,9.3,56,0.00,,,0.00,TxWx,2013-05-15 04:18:00,
2013-05-15 00:21:00,74.6,57.0,30.18,NE,51,6.8,6.8,54,0.00,,,0.00,TxWx,2013-05-15 04:21:00,
2013-05-15 00:22:00,74.6,57.0,30.18,ENE,73,8.0,8.0,54,0.00,,,0.00,TxWx,2013-05-15 04:22:00,
2013-05-15 00:23:00,74.7,57.0,30.18,East,96,5.6,5.6,54,0.00,,,0.00,TxWx,2013-05-15 04:23:00,
2013-05-15 00:25:00,74.8,58.0,30.17,East,96,11.1,11.1,55,0.00,,,0.00,TxWx,2013-05-15 04:25:00,
2013-05-15 00:26:00,74.8,58.0,30.18,NE,51,12.4,12.4,55,0.00,,,0.00,TxWx,2013-05-15 04:26:00,
2013-05-15 00:27:00,74.8,58.0,30.18,ESE,118,8.7,9.3,56,0.00,,,0.00,TxWx,2013-05-15 04:27:00,
2013-05-15 00:28:00,74.8,58.0,30.17,NE,51,11.1,11.1,57,0.00,,,0.00,TxWx,2013-05-15 04:28:00,
2013-05-15 00:30:00,74.7,58.0,30.17,East,96,6.8,6.8,55,0.00,,,0.00,TxWx,2013-05-15 04:30:00,
2013-05-15 00:32:00,74.7,57.0,30.17,NE,51,6.8,7.4,54,0.00,,,0.00,TxWx,2013-05-15 04:32:00,
2013-05-15 00:33:00,74.7,56.0,30.18,NE,51,6.2,7.4,52,0.00,,,0.00,TxWx,2013-05-15 04:33:00,
2013-05-15 00:35:00,74.7,56.0,30.17,NNE,28,5.6,6.8,53,0.00,,,0.00,TxWx,2013-05-15 04:35:00,
2013-05-15 00:36:00,74.7,56.0,30.17,NE,51,4.3,4.3,52,0.00,,,0.00,TxWx,2013-05-15 04:36:00,
2013-05-15 00:38:00,74.6,56.0,30.18,ENE,73,6.8,7.4,52,0.00,,,0.00,TxWx,2013-05-15 04:38:00,
2013-05-15 00:40:00,74.6,55.0,30.18,NE,51,5.0,5.6,50,0.00,,,0.00,TxWx,2013-05-15 04:40:00,
2013-05-15 00:41:00,74.7,56.0,30.18,NE,51,5.6,8.7,51,0.00,,,0.00,TxWx,2013-05-15 04:41:00,
2013-05-15 00:42:00,74.7,57.0,30.18,NE,51,6.8,7.4,53,0.00,,,0.00,TxWx,2013-05-15 04:42:00,
2013-05-15 00:44:00,74.7,56.0,30.17,NE,51,10.5,12.4,52,0.00,,,0.00,TxWx,2013-05-15 04:44:00,
2013-05-15 00:47:00,74.6,56.0,30.17,NE,51,6.8,8.7,52,0.00,,,0.00,TxWx,2013-05-15 04:47:00,
2013-05-15 00:48:00,74.6,56.0,30.18,East,96,4.3,5.0,52,0.00,,,0.00,TxWx,2013-05-15 04:48:00,
2013-05-15 00:49:00,74.6,57.0,30.18,ENE,73,10.5,10.5,53,0.00,,,0.00,TxWx,2013-05-15 04:49:00,
2013-05-15 00:50:00,74.6,57.0,30.18,East,96,9.9,12.4,54,0.00,,,0.00,TxWx,2013-05-15 04:50:00,
2013-05-15 00:53:00,74.7,56.0,30.17,ESE,118,9.9,9.9,52,0.00,,,0.00,TxWx,2013-05-15 04:53:00,
2013-05-15 00:54:00,74.6,56.0,30.17,ENE,73,13.6,13.6,51,0.00,,,0.00,TxWx,2013-05-15 04:54:00,
2013-05-15 00:55:00,74.6,57.0,30.17,NE,51,8.7,8.7,53,0.00,,,0.00,TxWx,2013-05-15 04:55:00,
2013-05-15 00:56:00,74.6,56.0,30.17,NE,51,9.9,13.0,52,0.00,,,0.00,TxWx,2013-05-15 04:56:00,
2013-05-15 01:00:00,74.6,56.0,30.17,East,96,12.4,12.4,51,0.00,,,0.00,TxWx,2013-05-15 05:00:00,
2013-05-15 01:01:00,74.6,55.0,30.17,East,96,9.9,9.9,51,0.00,,,0.00,TxWx,2013-05-15 05:01:00,
2013-05-15 01:02:00,74.7,56.0,30.17,ESE,118,9.9,9.9,51,0.00,,,0.00,TxWx,2013-05-15 05:02:00,
2013-05-15 01:03:00,74.6,56.0,30.17,East,96,8.7,11.1,52,0.00,,,0.00,TxWx,2013-05-15 05:03:00,
2013-05-15 01:05:00,74.6,57.0,30.17,East,96,13.0,13.0,55,0.00,,,0.00,TxWx,2013-05-15 05:05:00,
2013-05-15 01:06:00,74.7,56.0,30.17,ENE,73,6.2,6.2,53,0.00,,,0.00,TxWx,2013-05-15 05:06:00,
2013-05-15 01:08:00,74.5,57.0,30.17,ENE,73,11.1,11.1,53,0.00,,,0.00,TxWx,2013-05-15 05:08:00,
2013-05-15 01:10:00,74.5,57.0,30.17,East,96,6.8,6.8,54,0.00,,,0.00,TxWx,2013-05-15 05:10:00,
2013-05-15 01:11:00,74.5,56.0,30.17,East,96,6.8,9.9,53,0.00,,,0.00,TxWx,2013-05-15 05:11:00,
2013-05-15 01:12:00,74.5,55.0,30.17,ENE,73,8.7,9.3,53,0.00,,,0.00,TxWx,2013-05-15 05:12:00,
2013-05-15 01:16:00,74.5,57.0,30.17,ENE,73,9.9,13.0,55,0.00,,,0.00,TxWx,2013-05-15 05:16:00,
2013-05-15 01:17:00,74.4,57.0,30.17,SE,141,7.4,7.4,55,0.00,,,0.00,TxWx,2013-05-15 05:17:00,
2013-05-15 01:18:00,74.4,56.0,30.17,ENE,73,8.7,8.7,54,0.00,,,0.00,TxWx,2013-05-15 05:18:00,
2013-05-15 01:21:00,74.4,56.0,30.17,East,96,7.4,7.4,53,0.00,,,0.00,TxWx,2013-05-15 05:21:00,
2013-05-15 01:22:00,74.4,56.0,30.17,East,96,11.1,11.1,53,0.00,,,0.00,TxWx,2013-05-15 05:22:00,
2013-05-15 01:23:00,74.4,55.0,30.16,East,96,11.1,11.1,52,0.00,,,0.00,TxWx,2013-05-15 05:23:00,
2013-05-15 01:26:00,74.4,56.0,30.16,East,96,8.0,8.0,54,0.00,,,0.00,TxWx,2013-05-15 05:26:00,
2013-05-15 01:27:00,74.5,57.0,30.17,East,96,14.2,15.5,54,0.00,,,0.00,TxWx,2013-05-15 05:27:00,
2013-05-15 01:28:00,74.6,57.0,30.17,East,96,9.9,9.9,54,0.00,,,0.00,TxWx,2013-05-15 05:28:00,
2013-05-15 01:30:00,74.7,58.0,30.17,East,96,8.0,9.9,57,0.00,,,0.00,TxWx,2013-05-15 05:30:00,
2013-05-15 01:31:00,74.6,58.0,30.16,East,96,9.3,10.5,56,0.00,,,0.00,TxWx,2013-05-15 05:31:00,
2013-05-15 01:33:00,74.5,57.0,30.17,ESE,118,8.7,8.7,53,0.00,,,0.00,TxWx,2013-05-15 05:33:00,
2013-05-15 01:34:00,74.5,56.0,30.17,NE,51,6.8,6.8,54,0.00,,,0.00,TxWx,2013-05-15 05:34:00,
2013-05-15 01:36:00,74.5,58.0,30.16,NNE,28,5.6,6.8,55,0.00,,,0.00,TxWx,2013-05-15 05:36:00,
2013-05-15 01:37:00,74.6,57.0,30.16,East,96,13.0,13.0,54,0.00,,,0.00,TxWx,2013-05-15 05:37:00,
2013-05-15 01:40:00,74.7,56.0,30.16,ENE,73,9.9,9.9,53,0.00,,,0.00,TxWx,2013-05-15 05:40:00,
2013-05-15 01:41:00,74.6,56.0,30.16,NE,51,8.7,9.9,52,0.00,,,0.00,TxWx,2013-05-15 05:41:00,
2013-05-15 01:42:00,74.6,56.0,30.16,NE,51,6.8,9.3,52,0.00,,,0.00,TxWx,2013-05-15 05:42:00,
2013-05-15 01:43:00,74.6,56.0,30.16,ENE,73,6.8,6.8,52,0.00,,,0.00,TxWx,2013-05-15 05:43:00,
2013-05-15 01:45:00,74.6,58.0,30.16,East,96,9.3,9.9,56,0.00,,,0.00,TxWx,2013-05-15 05:45:00,
2013-05-15 01:47:00,74.6,57.0,30.16,East,96,11.1,12.4,53,0.00,,,0.00,TxWx,2013-05-15 05:47:00,
2013-05-15 01:48:00,74.6,58.0,30.16,ESE,118,9.9,9.9,55,0.00,,,0.00,TxWx,2013-05-15 05:48:00,
2013-05-15 01:50:00,74.6,57.0,30.16,ESE,118,8.7,10.5,55,0.00,,,0.00,TxWx,2013-05-15 05:50:00,
2013-05-15 01:51:00,74.5,57.0,30.16,East,96,8.0,8.7,54,0.00,,,0.00,TxWx,2013-05-15 05:51:00,
2013-05-15 01:52:00,74.5,57.0,30.16,ENE,73,8.0,8.0,53,0.00,,,0.00,TxWx,2013-05-15 05:52:00,
2013-05-15 01:56:00,74.4,57.0,30.15,East,96,8.0,9.9,56,0.00,,,0.00,TxWx,2013-05-15 05:56:00,
2013-05-15 01:57:00,74.5,57.0,30.15,NE,51,11.8,13.0,55,0.00,,,0.00,TxWx,2013-05-15 05:57:00,
2013-05-15 01:58:00,74.4,56.0,30.15,East,96,9.3,11.8,54,0.00,,,0.00,TxWx,2013-05-15 05:58:00,
2013-05-15 01:59:00,74.6,58.0,30.15,ESE,118,11.8,13.6,55,0.00,,,0.00,TxWx,2013-05-15 05:59:00,
2013-05-15 02:03:00,74.7,59.0,30.15,ENE,73,9.3,10.5,58,0.00,,,0.00,TxWx,2013-05-15 06:03:00,
2013-05-15 02:04:00,74.3,57.0,30.15,ESE,118,6.8,7.4,56,0.00,,,0.00,TxWx,2013-05-15 06:04:00,
2013-05-15 02:05:00,74.4,57.0,30.15,East,96,6.8,6.8,56,0.00,,,0.00,TxWx,2013-05-15 06:05:00,
2013-05-15 02:06:00,74.4,57.0,30.16,East,96,6.8,9.3,56,0.00,,,0.00,TxWx,2013-05-15 06:06:00,
2013-05-15 02:08:00,74.3,57.0,30.15,East,96,5.6,5.6,56,0.00,,,0.00,TxWx,2013-05-15 06:08:00,
2013-05-15 02:10:00,74.5,58.0,30.15,ENE,73,9.9,12.4,57,0.00,,,0.00,TxWx,2013-05-15 06:10:00,
2013-05-15 02:11:00,74.5,58.0,30.15,East,96,8.0,9.3,57,0.00,,,0.00,TxWx,2013-05-15 06:11:00,
2013-05-15 02:13:00,74.5,58.0,30.15,ENE,73,12.4,13.0,56,0.00,,,0.00,TxWx,2013-05-15 06:13:00,
2013-05-15 02:16:00,74.5,57.0,30.15,East,96,11.8,14.9,56,0.00,,,0.00,TxWx,2013-05-15 06:16:00,
2013-05-15 02:17:00,74.4,57.0,30.15,East,96,10.5,10.5,56,0.00,,,0.00,TxWx,2013-05-15 06:17:00,
2013-05-15 02:18:00,74.4,57.0,30.15,East,96,9.9,9.9,56,0.00,,,0.00,TxWx,2013-05-15 06:18:00,
2013-05-15 02:20:00,74.4,57.0,30.15,ESE,118,13.6,13.6,56,0.00,,,0.00,TxWx,2013-05-15 06:20:00,
2013-05-15 02:23:00,74.5,58.0,30.15,East,96,11.8,11.8,56,0.00,,,0.00,TxWx,2013-05-15 06:23:00,
2013-05-15 02:24:00,74.5,58.0,30.15,East,96,12.4,12.4,55,0.00,,,0.00,TxWx,2013-05-15 06:24:00,
2013-05-15 02:25:00,74.6,58.0,30.15,East,96,12.4,12.4,56,0.00,,,0.00,TxWx,2013-05-15 06:25:00,
2013-05-15 02:28:00,74.5,57.0,30.15,ENE,73,9.9,9.9,55,0.00,,,0.00,TxWx,2013-05-15 06:28:00,
2013-05-15 02:29:00,74.6,59.0,30.15,ESE,118,9.9,11.8,58,0.00,,,0.00,TxWx,2013-05-15 06:29:00,
2013-05-15 02:30:00,74.5,58.0,30.15,ESE,118,5.0,5.6,57,0.00,,,0.00,TxWx,2013-05-15 06:30:00,
2013-05-15 02:32:00,74.4,58.0,30.14,ENE,73,8.0,8.0,57,0.00,,,0.00,TxWx,2013-05-15 06:32:00,
2013-05-15 02:33:00,74.5,59.0,30.14,NE,51,8.0,9.9,59,0.00,,,0.00,TxWx,2013-05-15 06:33:00,
2013-05-15 02:34:00,74.3,58.0,30.14,East,96,9.9,9.9,57,0.00,,,0.00,TxWx,2013-05-15 06:34:00,
2013-05-15 02:36:00,74.4,58.0,30.14,NE,51,9.3,9.3,57,0.00,,,0.00,TxWx,2013-05-15 06:36:00,
2013-05-15 02:38:00,74.4,57.0,30.15,East,96,7.4,8.0,56,0.00,,,0.00,TxWx,2013-05-15 06:38:00,
2013-05-15 02:41:00,74.3,58.0,30.14,East,96,9.9,9.9,57,0.00,,,0.00,TxWx,2013-05-15 06:41:00,
2013-05-15 02:43:00,74.6,59.0,30.14,East,96,14.2,14.9,58,0.00,,,0.00,TxWx,2013-05-15 06:43:00,
2013-05-15 02:44:00,74.6,60.0,30.14,East,96,10.5,11.8,59,0.00,,,0.00,TxWx,2013-05-15 06:44:00,
2013-05-15 02:45:00,74.4,58.0,30.14,ENE,73,10.5,10.5,57,0.00,,,0.00,TxWx,2013-05-15 06:45:00,
2013-05-15 02:46:00,74.5,59.0,30.14,ESE,118,9.3,11.8,57,0.00,,,0.00,TxWx,2013-05-15 06:46:00,
2013-05-15 02:47:00,74.6,59.0,30.14,ESE,118,10.5,10.5,58,0.00,,,0.00,TxWx,2013-05-15 06:47:00,
2013-05-15 02:49:00,74.5,59.0,30.14,East,96,7.4,8.7,58,0.00,,,0.00,TxWx,2013-05-15 06:49:00,
2013-05-15 02:50:00,74.6,59.0,30.14,East,96,9.9,10.5,58,0.00,,,0.00,TxWx,2013-05-15 06:50:00,
2013-05-15 02:51:00,74.6,59.0,30.14,NE,51,5.6,7.4,58,0.00,,,0.00,TxWx,2013-05-15 06:51:00,
2013-05-15 02:52:00,74.4,58.0,30.14,ENE,73,9.3,9.3,57,0.00,,,0.00,TxWx,2013-05-15 06:52:00,
2013-05-15 02:55:00,74.4,58.0,30.14,ENE,73,8.7,9.3,58,0.00,,,0.00,TxWx,2013-05-15 06:55:00,
2013-05-15 02:56:00,74.4,58.0,30.14,East,96,7.4,8.7,57,0.00,,,0.00,TxWx,2013-05-15 06:56:00,
2013-05-15 02:57:00,74.4,58.0,30.14,ESE,118,9.9,13.0,58,0.00,,,0.00,TxWx,2013-05-15 06:57:00,
2013-05-15 02:58:00,74.3,58.0,30.14,ENE,73,12.4,14.9,57,0.00,,,0.00,TxWx,2013-05-15 06:58:00,
2013-05-15 03:00:00,74.4,58.0,30.14,ENE,73,9.9,9.9,58,0.00,,,0.00,TxWx,2013-05-15 07:00:00,
2013-05-15 03:02:00,74.4,58.0,30.14,ENE,73,6.8,6.8,58,0.00,,,0.00,TxWx,2013-05-15 07:02:00,
2013-05-15 03:05:00,74.3,58.0,30.14,East,96,8.0,8.0,58,0.00,,,0.00,TxWx,2013-05-15 07:05:00,
2013-05-15 03:07:00,74.4,58.0,30.14,East,96,13.0,13.0,58,0.00,,,0.00,TxWx,2013-05-15 07:07:00,
2013-05-15 03:08:00,74.4,58.0,30.14,East,96,9.3,9.9,57,0.00,,,0.00,TxWx,2013-05-15 07:08:00,
2013-05-15 03:09:00,74.5,60.0,30.14,East,96,8.0,11.1,60,0.00,,,0.00,TxWx,2013-05-15 07:09:00,
2013-05-15 03:10:00,74.5,59.0,30.14,East,96,9.9,13.0,60,0.00,,,0.00,TxWx,2013-05-15 07:10:00,
2013-05-15 03:11:00,74.5,59.0,30.14,ENE,73,9.3,9.9,59,0.00,,,0.00,TxWx,2013-05-15 07:11:00,
2013-05-15 03:15:00,74.3,58.0,30.14,East,96,8.7,8.7,58,0.00,,,0.00,TxWx,2013-05-15 07:15:00,
2013-05-15 03:16:00,74.3,58.0,30.14,East,96,9.3,9.3,59,0.00,,,0.00,TxWx,2013-05-15 07:16:00,
2013-05-15 03:20:00,74.4,58.0,30.14,East,96,8.7,8.7,58,0.00,,,0.00,TxWx,2013-05-15 07:20:00,
2013-05-15 03:23:00,74.5,59.0,30.14,East,96,11.1,11.1,58,0.00,,,0.00,TxWx,2013-05-15 07:23:00,
2013-05-15 03:25:00,74.3,58.0,30.14,NE,51,7.4,7.4,58,0.00,,,0.00,TxWx,2013-05-15 07:25:00,
2013-05-15 03:26:00,74.4,58.0,30.14,East,96,5.6,7.4,58,0.00,,,0.00,TxWx,2013-05-15 07:26:00,
2013-05-15 03:29:00,74.5,58.0,30.14,East,96,13.0,13.0,59,0.00,,,0.00,TxWx,2013-05-15 07:29:00,
2013-05-15 03:30:00,74.6,59.0,30.14,East,96,7.4,8.7,57,0.00,,,0.00,TxWx,2013-05-15 07:30:00,
2013-05-15 03:34:00,74.4,59.0,30.14,ENE,73,4.3,5.0,60,0.00,,,0.00,TxWx,2013-05-15 07:34:00,
2013-05-15 03:35:00,74.4,58.0,30.14,ESE,118,8.7,9.9,59,0.00,,,0.00,TxWx,2013-05-15 07:35:00,
2013-05-15 03:36:00,74.5,59.0,30.14,East,96,4.3,4.3,60,0.00,,,0.00,TxWx,2013-05-15 07:36:00,
2013-05-15 03:38:00,74.4,59.0,30.14,East,96,8.7,9.9,60,0.00,,,0.00,TxWx,2013-05-15 07:38:00,
2013-05-15 03:39:00,74.4,59.0,30.14,ENE,73,9.3,9.3,60,0.00,,,0.00,TxWx,2013-05-15 07:39:00,
2013-05-15 03:40:00,74.4,58.0,30.14,East,96,7.4,7.4,59,0.00,,,0.00,TxWx,2013-05-15 07:40:00,
2013-05-15 03:42:00,74.4,58.0,30.14,ENE,73,6.2,8.7,59,0.00,,,0.00,TxWx,2013-05-15 07:42:00,
2013-05-15 03:43:00,74.4,59.0,30.14,East,96,6.2,6.2,60,0.00,,,0.00,TxWx,2013-05-15 07:43:00,
2013-05-15 03:44:00,74.4,59.0,30.14,NE,51,6.2,6.2,59,0.00,,,0.00,TxWx,2013-05-15 07:44:00,
2013-05-15 03:46:00,74.4,59.0,30.14,East,96,4.3,4.3,59,0.00,,,0.00,TxWx,2013-05-15 07:46:00,
2013-05-15 03:49:00,74.4,59.0,30.14,East,96,5.6,5.6,59,0.00,,,0.00,TxWx,2013-05-15 07:49:00,
2013-05-15 03:51:00,74.3,59.0,30.14,East,96,3.7,3.7,60,0.00,,,0.00,TxWx,2013-05-15 07:51:00,
2013-05-15 03:53:00,74.5,60.0,30.14,ESE,118,3.7,3.7,61,0.00,,,0.00,TxWx,2013-05-15 07:53:00,
2013-05-15 03:55:00,74.5,60.0,30.14,East,96,7.4,8.7,60,0.00,,,0.00,TxWx,2013-05-15 07:55:00,
2013-05-15 03:58:00,74.7,60.0,30.14,East,96,8.0,8.0,59,0.00,,,0.00,TxWx,2013-05-15 07:58:00,
2013-05-15 03:59:00,74.7,60.0,30.14,East,96,9.9,9.9,60,0.00,,,0.00,TxWx,2013-05-15 07:59:00,
2013-05-15 04:00:00,74.7,60.0,30.14,ENE,73,5.6,6.8,60,0.00,,,0.00,TxWx,2013-05-15 08:00:00,
2013-05-15 04:03:00,74.5,59.0,30.14,East,96,6.2,6.2,59,0.00,,,0.00,TxWx,2013-05-15 08:03:00,
2013-05-15 04:04:00,74.6,60.0,30.13,SE,141,6.8,6.8,60,0.00,,,0.00,TxWx,2013-05-15 08:04:00,
2013-05-15 04:06:00,74.5,60.0,30.13,ESE,118,9.3,9.3,60,0.00,,,0.00,TxWx,2013-05-15 08:06:00,
2013-05-15 04:08:00,74.6,60.0,30.13,East,96,11.8,11.8,60,0.00,,,0.00,TxWx,2013-05-15 08:08:00,
2013-05-15 04:09:00,74.6,60.0,30.13,East,96,12.4,12.4,61,0.00,,,0.00,TxWx,2013-05-15 08:09:00,
2013-05-15 04:11:00,74.6,61.0,30.13,East,96,9.3,9.9,62,0.00,,,0.00,TxWx,2013-05-15 08:11:00,
2013-05-15 04:12:00,74.6,61.0,30.13,ENE,73,8.7,8.7,61,0.00,,,0.00,TxWx,2013-05-15 08:12:00,
2013-05-15 04:13:00,74.6,60.0,30.13,East,96,8.7,8.7,61,0.00,,,0.00,TxWx,2013-05-15 08:13:00,
2013-05-15 04:15:00,74.6,60.0,30.13,East,96,8.7,8.7,61,0.00,,,0.00,TxWx,2013-05-15 08:15:00,
2013-05-15 04:17:00,74.6,61.0,30.13,East,96,5.0,5.0,62,0.00,,,0.00,TxWx,2013-05-15 08:17:00,
2013-05-15 04:18:00,74.5,61.0,30.13,ESE,118,3.7,3.7,61,0.00,,,0.00,TxWx,2013-05-15 08:18:00,
2013-05-15 04:20:00,74.5,61.0,30.13,East,96,6.2,6.8,61,0.00,,,0.00,TxWx,2013-05-15 08:20:00,
2013-05-15 04:23:00,74.6,61.0,30.13,East,96,11.1,11.1,63,0.00,,,0.00,TxWx,2013-05-15 08:23:00,
2013-05-15 04:24:00,74.6,62.0,30.13,East,96,11.8,12.4,64,0.00,,,0.00,TxWx,2013-05-15 08:24:00,
2013-05-15 04:25:00,74.7,62.0,30.13,East,96,10.5,10.5,64,0.00,,,0.00,TxWx,2013-05-15 08:25:00,
2013-05-15 04:26:00,74.7,62.0,30.13,East,96,20.4,22.3,64,0.00,,,0.00,TxWx,2013-05-15 08:26:00,
2013-05-15 04:29:00,74.6,62.0,30.13,East,96,14.2,16.1,64,0.00,,,0.00,TxWx,2013-05-15 08:29:00,
2013-05-15 04:30:00,74.5,62.0,30.13,East,96,19.8,19.8,64,0.00,,,0.00,TxWx,2013-05-15 08:30:00,
2013-05-15 04:31:00,74.5,62.0,30.13,East,96,17.3,17.9,64,0.00,,,0.00,TxWx,2013-05-15 08:31:00,
2013-05-15 04:32:00,74.6,62.0,30.13,ESE,118,16.1,17.3,64,0.00,,,0.00,TxWx,2013-05-15 08:32:00,
2013-05-15 04:35:00,74.5,62.0,30.13,ESE,118,11.8,16.1,66,0.00,,,0.00,TxWx,2013-05-15 08:35:00,
2013-05-15 04:36:00,74.6,63.0,30.13,East,96,15.5,15.5,66,0.00,,,0.00,TxWx,2013-05-15 08:36:00,
2013-05-15 04:37:00,74.4,61.0,30.13,East,96,15.5,15.5,65,0.00,,,0.00,TxWx,2013-05-15 08:37:00,
2013-05-15 04:38:00,74.4,61.0,30.13,East,96,17.3,17.3,65,0.00,,,0.00,TxWx,2013-05-15 08:38:00,
2013-05-15 04:41:00,74.3,61.0,30.13,East,96,14.9,16.7,65,0.00,,,0.00,TxWx,2013-05-15 08:41:00,
2013-05-15 04:43:00,74.5,62.0,30.13,East,96,16.7,17.9,65,0.00,,,0.00,TxWx,2013-05-15 08:43:00,
2013-05-15 04:45:00,74.6,63.0,30.13,East,96,11.1,11.1,66,0.00,,,0.00,TxWx,2013-05-15 08:45:00,
2013-05-15 04:46:00,74.6,62.0,30.13,East,96,14.2,14.9,65,0.00,,,0.00,TxWx,2013-05-15 08:46:00,
2013-05-15 04:47:00,74.7,62.0,30.13,ESE,118,11.8,13.6,65,0.00,,,0.00,TxWx,2013-05-15 08:47:00,
2013-05-15 04:51:00,74.4,61.0,30.13,East,96,14.2,16.7,64,0.00,,,0.00,TxWx,2013-05-15 08:51:00,
2013-05-15 04:52:00,74.4,61.0,30.13,East,96,15.5,16.7,64,0.00,,,0.00,TxWx,2013-05-15 08:52:00,
2013-05-15 04:53:00,74.4,61.0,30.13,ESE,118,14.2,16.1,63,0.00,,,0.00,TxWx,2013-05-15 08:53:00,
2013-05-15 04:54:00,74.5,62.0,30.13,ESE,118,15.5,15.5,65,0.00,,,0.00,TxWx,2013-05-15 08:54:00,
2013-05-15 04:57:00,74.3,61.0,30.13,ESE,118,16.7,16.7,65,0.00,,,0.00,TxWx,2013-05-15 08:57:00,
2013-05-15 04:58:00,74.3,61.0,30.13,East,96,14.2,15.5,64,0.00,,,0.00,TxWx,2013-05-15 08:58:00,
2013-05-15 04:59:00,74.3,61.0,30.13,ESE,118,11.1,11.1,64,0.00,,,0.00,TxWx,2013-05-15 08:59:00,
2013-05-15 05:00:00,74.4,61.0,30.14,ESE,118,11.8,12.4,64,0.00,,,0.00,TxWx,2013-05-15 09:00:00,
2013-05-15 05:05:00,74.4,61.0,30.13,SE,141,13.0,13.6,65,0.00,,,0.00,TxWx,2013-05-15 09:05:00,
2013-05-15 05:06:00,74.3,61.0,30.13,SE,141,13.0,13.6,65,0.00,,,0.00,TxWx,2013-05-15 09:06:00,
2013-05-15 05:07:00,74.4,61.0,30.13,ESE,118,11.1,11.1,65,0.00,,,0.00,TxWx,2013-05-15 09:07:00,
2013-05-15 05:11:00,74.7,61.0,30.13,East,96,16.1,16.7,62,0.00,,,0.00,TxWx,2013-05-15 09:11:00,
2013-05-15 05:12:00,74.7,61.0,30.13,ESE,118,14.2,14.2,61,0.00,,,0.00,TxWx,2013-05-15 09:12:00,
2013-05-15 05:13:00,74.8,60.0,30.13,ESE,118,13.0,14.2,61,0.00,,,0.00,TxWx,2013-05-15 09:13:00,
2013-05-15 05:16:00,74.7,60.0,30.13,East,96,13.0,13.0,60,0.00,,,0.00,TxWx,2013-05-15 09:16:00,
2013-05-15 05:18:00,74.8,61.0,30.14,ESE,118,16.7,16.7,61,0.00,,,0.00,TxWx,2013-05-15 09:18:00,
2013-05-15 05:19:00,74.8,61.0,30.14,East,96,14.2,14.9,62,0.00,,,0.00,TxWx,2013-05-15 09:19:00,
2013-05-15 05:22:00,75.0,62.0,30.14,East,96,14.9,14.9,64,0.00,,,0.00,TxWx,2013-05-15 09:22:00,
2013-05-15 05:23:00,74.8,61.0,30.14,ESE,118,10.5,10.5,61,0.00,,,0.00,TxWx,2013-05-15 09:23:00,
2013-05-15 05:24:00,74.6,60.0,30.14,ESE,118,11.8,12.4,60,0.00,,,0.00,TxWx,2013-05-15 09:24:00,
2013-05-15 05:26:00,74.7,60.0,30.14,ESE,118,13.0,13.0,59,0.00,,,0.00,TxWx,2013-05-15 09:26:00,
2013-05-15 05:27:00,74.8,60.0,30.14,ESE,118,16.1,16.1,60,0.00,,,0.00,TxWx,2013-05-15 09:27:00,
2013-05-15 05:30:00,74.7,60.0,30.14,East,96,16.1,17.9,60,0.00,,,0.00,TxWx,2013-05-15 09:30:00,
2013-05-15 05:31:00,74.6,60.0,30.14,ESE,118,14.9,14.9,60,0.00,,,0.00,TxWx,2013-05-15 09:31:00,
2013-05-15 05:32:00,74.8,61.0,30.14,East,96,10.5,13.6,61,0.00,,,0.00,TxWx,2013-05-15 09:32:00,
2013-05-15 05:35:00,74.7,60.0,30.14,East,96,17.3,17.3,59,0.00,,,0.00,TxWx,2013-05-15 09:35:00,
2013-05-15 05:36:00,74.6,60.0,30.14,ESE,118,14.9,15.5,60,0.00,,,0.00,TxWx,2013-05-15 09:36:00,
2013-05-15 05:37:00,74.8,60.0,30.14,East,96,14.2,14.2,60,0.00,,,0.00,TxWx,2013-05-15 09:37:00,
2013-05-15 05:39:00,74.6,60.0,30.14,ESE,118,16.1,17.3,60,0.00,,,0.00,TxWx,2013-05-15 09:39:00,
2013-05-15 05:41:00,74.8,60.0,30.14,ESE,118,11.1,11.1,60,0.00,,,0.00,TxWx,2013-05-15 09:41:00,
2013-05-15 05:43:00,74.8,61.0,30.14,ESE,118,13.0,13.0,62,0.00,,,0.00,TxWx,2013-05-15 09:43:00,
2013-05-15 05:44:00,74.7,61.0,30.14,ESE,118,9.3,10.5,61,0.00,,,0.00,TxWx,2013-05-15 09:44:00,
2013-05-15 05:45:00,74.7,60.0,30.14,East,96,9.3,9.3,61,0.00,,,0.00,TxWx,2013-05-15 09:45:00,
2013-05-15 05:47:00,74.7,60.0,30.14,ESE,118,13.6,13.6,59,0.00,,,0.00,TxWx,2013-05-15 09:47:00,
2013-05-15 05:49:00,74.7,59.0,30.14,East,96,16.1,17.9,59,0.00,,,0.00,TxWx,2013-05-15 09:49:00,
2013-05-15 05:50:00,74.6,59.0,30.15,ESE,118,13.0,14.9,58,0.00,,,0.00,TxWx,2013-05-15 09:50:00,
2013-05-15 05:54:00,74.6,60.0,30.15,ESE,118,17.3,18.6,59,0.00,,,0.00,TxWx,2013-05-15 09:54:00,
2013-05-15 05:55:00,74.7,59.0,30.15,East,96,15.5,15.5,58,0.00,,,0.00,TxWx,2013-05-15 09:55:00,
2013-05-15 05:56:00,74.7,60.0,30.15,East,96,13.6,16.1,60,0.00,,,0.00,TxWx,2013-05-15 09:56:00,
2013-05-15 05:57:00,74.7,60.0,30.15,East,96,13.6,14.2,59,0.00,,,0.00,TxWx,2013-05-15 09:57:00,
2013-05-15 06:00:00,74.8,60.0,30.15,East,96,13.0,13.0,60,0.00,,,0.00,TxWx,2013-05-15 10:00:00,
2013-05-15 06:02:00,74.7,59.0,30.15,East,96,12.4,13.6,59,0.00,,,0.00,TxWx,2013-05-15 10:02:00,
2013-05-15 06:03:00,74.7,59.0,30.15,ESE,118,13.0,15.5,59,0.00,,,0.00,TxWx,2013-05-15 10:03:00,
2013-05-15 06:06:00,74.8,59.0,30.15,ESE,118,10.5,11.1,59,0.00,,,0.00,TxWx,2013-05-15 10:06:00,
2013-05-15 06:08:00,74.7,59.0,30.15,East,96,14.2,15.5,58,0.00,,,0.00,TxWx,2013-05-15 10:08:00,
2013-05-15 06:09:00,74.7,59.0,30.15,ESE,118,14.2,15.5,58,0.00,,,0.00,TxWx,2013-05-15 10:09:00,
2013-05-15 06:10:00,74.7,59.0,30.15,East,96,16.1,16.1,58,0.00,,,0.00,TxWx,2013-05-15 10:10:00,
2013-05-15 06:12:00,74.6,59.0,30.15,ESE,118,13.6,14.2,59,0.00,,,0.00,TxWx,2013-05-15 10:12:00,
2013-05-15 06:14:00,74.6,59.0,30.15,East,96,11.8,11.8,58,0.00,,,0.00,TxWx,2013-05-15 10:14:00,
2013-05-15 06:15:00,74.7,59.0,30.15,East,96,13.0,16.1,58,0.00,,,0.00,TxWx,2013-05-15 10:15:00,
2013-05-15 06:16:00,74.7,60.0,30.15,ESE,118,13.0,13.6,59,0.00,,,0.00,TxWx,2013-05-15 10:16:00,
2013-05-15 06:18:00,74.5,59.0,30.15,East,96,10.5,11.1,59,0.00,,,0.00,TxWx,2013-05-15 10:18:00,
2013-05-15 06:20:00,74.6,59.0,30.15,East,96,12.4,12.4,58,0.00,,,0.00,TxWx,2013-05-15 10:20:00,
2013-05-15 06:22:00,74.6,59.0,30.15,East,96,10.5,10.5,58,0.00,,,0.00,TxWx,2013-05-15 10:22:00,
2013-05-15 06:23:00,74.5,59.0,30.15,East,96,14.2,15.5,58,0.00,,,0.00,TxWx,2013-05-15 10:23:00,
2013-05-15 06:24:00,74.6,58.0,30.15,East,96,13.6,13.6,57,0.00,,,0.00,TxWx,2013-05-15 10:24:00,
2013-05-15 06:25:00,74.5,57.0,30.15,East,96,12.4,13.0,56,0.00,,,0.00,TxWx,2013-05-15 10:25:00,
2013-05-15 06:28:00,74.5,59.0,30.15,East,96,9.3,10.5,57,0.00,,,0.00,TxWx,2013-05-15 10:28:00,
2013-05-15 06:29:00,74.5,59.0,30.15,East,96,9.3,9.3,58,0.00,,,0.00,TxWx,2013-05-15 10:29:00,
2013-05-15 06:30:00,74.5,58.0,30.15,East,96,11.8,13.0,57,0.00,,,0.00,TxWx,2013-05-15 10:30:00,
2013-05-15 06:32:00,74.6,59.0,30.16,ESE,118,13.0,13.0,58,0.00,,,0.00,TxWx,2013-05-15 10:32:00,
2013-05-15 06:34:00,74.7,59.0,30.15,ENE,73,9.3,9.9,58,0.00,,,0.00,TxWx,2013-05-15 10:34:00,
2013-05-15 06:35:00,74.5,58.0,30.15,East,96,10.5,12.4,57,0.00,,,0.00,TxWx,2013-05-15 10:35:00,
2013-05-15 06:36:00,74.6,59.0,30.15,ESE,118,13.6,13.6,57,0.00,,,0.00,TxWx,2013-05-15 10:36:00,
2013-05-15 06:40:00,74.6,58.0,30.16,East,96,9.9,10.5,56,0.00,,,0.00,TxWx,2013-05-15 10:40:00,
2013-05-15 06:41:00,74.8,60.0,30.15,East,96,11.1,12.4,60,0.00,,,0.00,TxWx,2013-05-15 10:41:00,
2013-05-15 06:45:00,74.7,58.0,30.16,ESE,118,13.6,15.5,57,0.00,,,0.00,TxWx,2013-05-15 10:45:00,
2013-05-15 06:46:00,74.7,58.0,30.16,East,96,9.9,9.9,56,0.00,,,0.00,TxWx,2013-05-15 10:46:00,
2013-05-15 06:47:00,74.6,58.0,30.16,ESE,118,10.5,12.4,56,0.00,,,0.00,TxWx,2013-05-15 10:47:00,
2013-05-15 06:50:00,74.7,58.0,30.16,East,96,11.1,11.8,56,0.00,,,0.00,TxWx,2013-05-15 10:50:00,
2013-05-15 06:51:00,74.7,59.0,30.15,East,96,13.0,13.0,57,0.00,,,0.00,TxWx,2013-05-15 10:51:00,
2013-05-15 06:52:00,74.6,58.0,30.15,ESE,118,9.9,11.8,56,0.00,,,0.00,TxWx,2013-05-15 10:52:00,
2013-05-15 06:55:00,74.7,58.0,30.15,East,96,14.2,17.3,57,0.00,,,0.00,TxWx,2013-05-15 10:55:00,
2013-05-15 06:57:00,74.7,58.0,30.16,ESE,118,11.1,11.1,56,0.00,,,0.00,TxWx,2013-05-15 10:57:00,
2013-05-15 06:59:00,74.8,58.0,30.16,ESE,118,11.8,11.8,55,0.00,,,0.00,TxWx,2013-05-15 10:59:00,
2013-05-15 07:02:00,74.8,58.0,30.16,East,96,8.0,10.5,57,0.00,,,0.00,TxWx,2013-05-15 11:02:00,
2013-05-15 07:03:00,74.8,58.0,30.16,East,96,9.9,9.9,56,0.00,,,0.00,TxWx,2013-05-15 11:03:00,
2013-05-15 07:05:00,74.7,58.0,30.16,East,96,13.0,13.6,56,0.00,,,0.00,TxWx,2013-05-15 11:05:00,
2013-05-15 07:07:00,74.8,58.0,30.16,ESE,118,11.8,13.0,57,0.00,,,0.00,TxWx,2013-05-15 11:07:00,
2013-05-15 07:10:00,74.9,59.0,30.16,ESE,118,14.2,14.9,57,0.00,,,0.00,TxWx,2013-05-15 11:10:00,
2013-05-15 07:11:00,74.8,58.0,30.16,East,96,14.9,15.5,56,0.00,,,0.00,TxWx,2013-05-15 11:11:00,
2013-05-15 07:13:00,74.8,59.0,30.16,ESE,118,11.8,13.6,57,0.00,,,0.00,TxWx,2013-05-15 11:13:00,
2013-05-15 07:17:00,74.8,59.0,30.16,ESE,118,9.3,9.3,58,0.00,,,0.00,TxWx,2013-05-15 11:17:00,
2013-05-15 07:18:00,74.7,59.0,30.16,East,96,14.9,14.9,57,0.00,,,0.00,TxWx,2013-05-15 11:18:00,
2013-05-15 07:19:00,74.7,58.0,30.16,East,96,11.1,11.1,57,0.00,,,0.00,TxWx,2013-05-15 11:19:00,
2013-05-15 07:21:00,74.8,59.0,30.16,East,96,12.4,12.4,58,0.00,,,0.00,TxWx,2013-05-15 11:21:00,
2013-05-15 07:22:00,74.9,58.0,30.16,East,96,12.4,13.0,57,0.00,,,0.00,TxWx,2013-05-15 11:22:00,
2013-05-15 07:24:00,74.8,58.0,30.16,ESE,118,11.1,11.1,57,0.00,,,0.00,TxWx,2013-05-15 11:24:00,
2013-05-15 07:25:00,74.8,59.0,30.16,East,96,9.9,11.1,57,0.00,,,0.00,TxWx,2013-05-15 11:25:00,
2013-05-15 07:28:00,74.7,59.0,30.16,ESE,118,11.8,11.8,57,0.00,,,0.00,TxWx,2013-05-15 11:28:00,
2013-05-15 07:29:00,74.7,58.0,30.16,ESE,118,10.5,11.8,56,0.00,,,0.00,TxWx,2013-05-15 11:29:00,
2013-05-15 07:30:00,74.7,59.0,30.16,East,96,11.1,12.4,57,0.00,,,0.00,TxWx,2013-05-15 11:30:00,
2013-05-15 07:34:00,74.7,59.0,30.16,ESE,118,13.6,14.2,58,0.00,,,0.00,TxWx,2013-05-15 11:34:00,
2013-05-15 07:35:00,74.7,58.0,30.16,East,96,11.1,11.1,57,0.00,,,0.00,TxWx,2013-05-15 11:35:00,
2013-05-15 07:36:00,74.8,59.0,30.16,ESE,118,11.1,12.4,58,0.00,,,0.00,TxWx,2013-05-15 11:36:00,
2013-05-15 07:39:00,74.9,59.0,30.16,ESE,118,9.9,10.5,59,0.00,,,0.00,TxWx,2013-05-15 11:39:00,
2013-05-15 07:41:00,74.9,60.0,30.16,ESE,118,13.0,13.0,59,0.00,,,0.00,TxWx,2013-05-15 11:41:00,
2013-05-15 07:42:00,75.0,60.0,30.16,East,96,11.8,14.9,60,0.00,,,0.00,TxWx,2013-05-15 11:42:00,
2013-05-15 07:43:00,74.9,59.0,30.16,East,96,9.9,11.8,58,0.00,,,0.00,TxWx,2013-05-15 11:43:00,
2013-05-15 07:44:00,75.0,61.0,30.16,East,96,12.4,12.4,61,0.00,,,0.00,TxWx,2013-05-15 11:44:00,
2013-05-15 07:46:00,75.2,59.0,30.16,ESE,118,5.6,7.4,59,0.00,,,0.00,TxWx,2013-05-15 11:46:00,
2013-05-15 07:48:00,75.2,60.0,30.16,ESE,118,14.2,15.5,60,0.00,,,0.00,TxWx,2013-05-15 11:48:00,
2013-05-15 07:49:00,75.1,60.0,30.17,ESE,118,11.8,11.8,59,0.00,,,0.00,TxWx,2013-05-15 11:49:00,
2013-05-15 07:50:00,75.1,59.0,30.17,East,96,9.3,9.9,59,0.00,,,0.00,TxWx,2013-05-15 11:50:00,
2013-05-15 07:52:00,75.2,59.0,30.17,SE,141,13.0,16.1,59,0.00,,,0.00,TxWx,2013-05-15 11:52:00,
2013-05-15 07:53:00,75.1,60.0,30.17,East,96,14.2,16.1,59,0.00,,,0.00,TxWx,2013-05-15 11:53:00,
2013-05-15 07:55:00,75.2,59.0,30.17,East,96,9.3,12.4,58,0.00,,,0.00,TxWx,2013-05-15 11:55:00,
2013-05-15 07:56:00,75.2,59.0,30.17,ESE,118,8.0,10.5,57,0.00,,,0.00,TxWx,2013-05-15 11:56:00,
2013-05-15 07:59:00,75.1,59.0,30.17,East,96,13.6,14.2,59,0.00,,,0.00,TxWx,2013-05-15 11:59:00,
2013-05-15 08:00:00,75.0,59.0,30.17,East,96,13.0,13.6,57,0.00,,,0.00,TxWx,2013-05-15 12:00:00,
2013-05-15 08:03:00,75.1,59.0,30.17,East,96,13.0,13.0,59,0.00,,,0.00,TxWx,2013-05-15 12:03:00,
2013-05-15 08:04:00,75.1,59.0,30.17,East,96,11.8,13.6,58,0.00,,,0.00,TxWx,2013-05-15 12:04:00,
2013-05-15 08:06:00,75.1,59.0,30.17,East,96,12.4,13.0,57,0.00,,,0.00,TxWx,2013-05-15 12:06:00,
2013-05-15 08:08:00,75.1,59.0,30.17,ESE,118,11.8,11.8,57,0.00,,,0.00,TxWx,2013-05-15 12:08:00,
2013-05-15 08:10:00,75.1,59.0,30.17,East,96,13.6,14.2,57,0.00,,,0.00,TxWx,2013-05-15 12:10:00,
2013-05-15 08:11:00,75.1,58.0,30.17,East,96,9.3,11.1,56,0.00,,,0.00,TxWx,2013-05-15 12:11:00,
2013-05-15 08:13:00,75.0,58.0,30.17,East,96,12.4,13.6,57,0.00,,,0.00,TxWx,2013-05-15 12:13:00,
2013-05-15 08:15:00,75.3,59.0,30.17,East,96,13.0,13.6,59,0.00,,,0.00,TxWx,2013-05-15 12:15:00,
2013-05-15 08:17:00,75.1,58.0,30.17,ENE,73,9.3,11.1,57,0.00,,,0.00,TxWx,2013-05-15 12:17:00,
2013-05-15 08:18:00,75.2,59.0,30.17,East,96,10.5,10.5,58,0.00,,,0.00,TxWx,2013-05-15 12:18:00,
2013-05-15 08:21:00,75.1,59.0,30.17,East,96,10.5,11.1,58,0.00,,,0.00,TxWx,2013-05-15 12:21:00,
2013-05-15 08:22:00,75.2,59.0,30.17,ESE,118,10.5,10.5,58,0.00,,,0.00,TxWx,2013-05-15 12:22:00,
2013-05-15 08:23:00,75.2,59.0,30.17,East,96,13.0,13.0,58,0.00,,,0.00,TxWx,2013-05-15 12:23:00,
2013-05-15 08:27:00,75.0,58.0,30.17,East,96,12.4,13.0,57,0.00,,,0.00,TxWx,2013-05-15 12:27:00,
2013-05-15 08:28:00,75.0,59.0,30.17,ESE,118,13.0,14.2,59,0.00,,,0.00,TxWx,2013-05-15 12:28:00,
2013-05-15 08:31:00,74.9,59.0,30.17,East,96,13.6,13.6,59,0.00,,,0.00,TxWx,2013-05-15 12:31:00,
2013-05-15 08:32:00,74.8,58.0,30.17,East,96,9.3,9.3,57,0.00,,,0.00,TxWx,2013-05-15 12:32:00,
2013-05-15 08:33:00,74.9,60.0,30.18,ESE,118,9.9,9.9,59,0.00,,,0.00,TxWx,2013-05-15 12:33:00,
2013-05-15 08:37:00,74.9,60.0,30.18,ESE,118,13.6,13.6,61,0.00,,,0.00,TxWx,2013-05-15 12:37:00,
2013-05-15 08:38:00,74.7,59.0,30.18,East,96,14.2,14.2,57,0.00,,,0.00,TxWx,2013-05-15 12:38:00,
2013-05-15 08:39:00,74.6,58.0,30.18,East,96,13.0,13.0,57,0.00,,,0.00,TxWx,2013-05-15 12:39:00,
2013-05-15 08:43:00,74.8,59.0,30.18,ESE,118,9.3,12.4,59,0.00,,,0.00,TxWx,2013-05-15 12:43:00,
2013-05-15 08:44:00,74.9,60.0,30.18,ESE,118,9.3,9.9,59,0.00,,,0.00,TxWx,2013-05-15 12:44:00,
2013-05-15 08:45:00,75.1,60.0,30.18,ESE,118,8.7,8.7,60,0.00,,,0.00,TxWx,2013-05-15 12:45:00,
2013-05-15 08:50:00,75.5,59.0,30.18,ESE,118,9.3,9.3,59,0.00,,,0.00,TxWx,2013-05-15 12:50:00,
2013-05-15 08:51:00,75.3,59.0,30.18,East,96,10.5,13.0,58,0.00,,,0.00,TxWx,2013-05-15 12:51:00,
2013-05-15 08:55:00,75.1,59.0,30.18,ESE,118,12.4,13.6,58,0.00,,,0.00,TxWx,2013-05-15 12:55:00,
2013-05-15 08:57:00,75.0,59.0,30.18,East,96,16.1,16.1,58,0.00,,,0.00,TxWx,2013-05-15 12:57:00,
2013-05-15 08:58:00,75.0,60.0,30.18,East,96,13.6,14.2,60,0.00,,,0.00,TxWx,2013-05-15 12:58:00,
2013-05-15 09:01:00,75.0,59.0,30.18,ESE,118,10.5,10.5,59,0.00,,,0.00,TxWx,2013-05-15 13:01:00,
2013-05-15 09:02:00,75.0,59.0,30.18,East,96,12.4,12.4,59,0.00,,,0.00,TxWx,2013-05-15 13:02:00,
2013-05-15 09:05:00,75.0,59.0,30.19,East,96,12.4,12.4,58,0.00,,,0.00,TxWx,2013-05-15 13:05:00,
2013-05-15 09:06:00,75.2,59.0,30.19,East,96,8.7,9.9,58,0.00,,,0.00,TxWx,2013-05-15 13:06:00,
2013-05-15 09:08:00,75.4,59.0,30.19,ESE,118,9.9,9.9,58,0.00,,,0.00,TxWx,2013-05-15 13:08:00,
2013-05-15 09:09:00,75.6,61.0,30.19,East,96,8.0,8.7,60,0.00,,,0.00,TxWx,2013-05-15 13:09:00,
2013-05-15 09:12:00,75.8,59.0,30.19,East,96,13.6,14.2,57,0.00,,,0.00,TxWx,2013-05-15 13:12:00,
2013-05-15 09:14:00,76.1,60.0,30.19,ESE,118,9.3,10.5,57,0.00,,,0.00,TxWx,2013-05-15 13:14:00,
2013-05-15 09:17:00,76.1,59.0,30.19,ENE,73,10.5,11.8,55,0.00,,,0.00,TxWx,2013-05-15 13:17:00,
2013-05-15 09:19:00,76.0,58.0,30.19,ENE,73,9.9,10.5,54,0.00,,,0.00,TxWx,2013-05-15 13:19:00,
2013-05-15 09:20:00,75.9,58.0,30.19,East,96,11.8,11.8,54,0.00,,,0.00,TxWx,2013-05-15 13:20:00,
2013-05-15 09:25:00,76.0,59.0,30.19,East,96,12.4,12.4,55,0.00,,,0.00,TxWx,2013-05-15 13:25:00,
2013-05-15 09:26:00,76.0,59.0,30.19,East,96,10.5,11.1,57,0.00,,,0.00,TxWx,2013-05-15 13:26:00,
2013-05-15 09:30:00,75.7,59.0,30.19,East,96,9.9,9.9,57,0.00,,,0.00,TxWx,2013-05-15 13:30:00,
2013-05-15 09:32:00,75.7,59.0,30.19,East,96,9.9,12.4,56,0.00,,,0.00,TxWx,2013-05-15 13:32:00,
2013-05-15 09:37:00,76.0,60.0,30.19,ENE,73,7.4,9.9,57,0.00,,,0.00,TxWx,2013-05-15 13:37:00,
2013-05-15 09:38:00,76.5,60.0,30.19,ENE,73,6.8,6.8,58,0.00,,,0.00,TxWx,2013-05-15 13:38:00,
2013-05-15 09:39:00,76.3,59.0,30.19,NE,51,9.3,11.1,56,0.00,,,0.00,TxWx,2013-05-15 13:39:00,
2013-05-15 09:44:00,76.5,58.0,30.19,East,96,6.8,6.8,55,0.00,,,0.00,TxWx,2013-05-15 13:44:00,
2013-05-15 09:45:00,76.4,58.0,30.19,ESE,118,11.8,11.8,55,0.00,,,0.00,TxWx,2013-05-15 13:45:00,
2013-05-15 09:47:00,76.4,58.0,30.19,East,96,7.4,8.0,54,0.00,,,0.00,TxWx,2013-05-15 13:47:00,
2013-05-15 09:50:00,76.7,60.0,30.19,East,96,8.0,9.3,55,0.00,,,0.00,TxWx,2013-05-15 13:50:00,
2013-05-15 09:51:00,76.7,60.0,30.19,East,96,6.8,7.4,56,0.00,,,0.00,TxWx,2013-05-15 13:51:00,
2013-05-15 09:52:00,76.8,59.0,30.19,East,96,6.2,6.2,55,0.00,,,0.00,TxWx,2013-05-15 13:52:00,
2013-05-15 09:53:00,76.8,59.0,30.19,East,96,7.4,8.0,55,0.00,,,0.00,TxWx,2013-05-15 13:53:00,
2013-05-15 09:57:00,76.8,59.0,30.19,East,96,8.0,8.0,53,0.00,,,0.00,TxWx,2013-05-15 13:57:00,
2013-05-15 09:58:00,77.1,59.0,30.19,ENE,73,5.0,5.0,54,0.00,,,0.00,TxWx,2013-05-15 13:58:00,
2013-05-15 09:59:00,76.7,58.0,30.19,ENE,73,8.0,8.0,52,0.00,,,0.00,TxWx,2013-05-15 13:59:00,
2013-05-15 10:04:00,76.6,58.0,30.19,ENE,73,9.3,9.9,52,0.00,,,0.00,TxWx,2013-05-15 14:04:00,
2013-05-15 10:05:00,76.4,57.0,30.19,ENE,73,7.4,7.4,53,0.00,,,0.00,TxWx,2013-05-15 14:05:00,
2013-05-15 10:09:00,76.5,59.0,30.19,ESE,118,11.1,11.1,54,0.00,,,0.00,TxWx,2013-05-15 14:09:00,
2013-05-15 10:10:00,76.5,59.0,30.20,East,96,8.0,8.7,55,0.00,,,0.00,TxWx,2013-05-15 14:10:00,
2013-05-15 10:14:00,76.2,59.0,30.20,East,96,11.1,11.1,55,0.00,,,0.00,TxWx,2013-05-15 14:14:00,
2013-05-15 10:15:00,76.3,59.0,30.20,East,96,8.7,8.7,56,0.00,,,0.00,TxWx,2013-05-15 14:15:00,
2013-05-15 10:16:00,76.2,59.0,30.19,East,96,10.5,11.1,56,0.00,,,0.00,TxWx,2013-05-15 14:16:00,
2013-05-15 10:17:00,76.2,60.0,30.19,ESE,118,10.5,12.4,57,0.00,,,0.00,TxWx,2013-05-15 14:17:00,
2013-05-15 10:19:00,75.9,59.0,30.19,East,96,11.1,12.4,56,0.00,,,0.00,TxWx,2013-05-15 14:19:00,
2013-05-15 10:21:00,75.9,59.0,30.19,East,96,13.6,14.2,57,0.00,,,0.00,TxWx,2013-05-15 14:21:00,
2013-05-15 10:22:00,75.9,59.0,30.19,East,96,16.1,16.1,57,0.00,,,0.00,TxWx,2013-05-15 14:22:00,
2013-05-15 10:23:00,75.8,59.0,30.19,ENE,73,13.0,13.0,55,0.00,,,0.00,TxWx,2013-05-15 14:23:00,
2013-05-15 10:26:00,76.5,60.0,30.20,East,96,9.9,9.9,57,0.00,,,0.00,TxWx,2013-05-15 14:26:00,
2013-05-15 10:28:00,76.4,60.0,30.20,ESE,118,9.3,10.5,59,0.00,,,0.00,TxWx,2013-05-15 14:28:00,
2013-05-15 10:29:00,76.0,59.0,30.20,East,96,8.7,9.9,57,0.00,,,0.00,TxWx,2013-05-15 14:29:00,
2013-05-15 10:32:00,76.1,59.0,30.20,East,96,12.4,12.4,56,0.00,,,0.00,TxWx,2013-05-15 14:32:00,
2013-05-15 10:35:00,75.7,59.0,30.20,ENE,73,7.4,7.4,57,0.00,,,0.00,TxWx,2013-05-15 14:35:00,
2013-05-15 10:36:00,75.6,59.0,30.20,ENE,73,7.4,8.0,56,0.00,,,0.00,TxWx,2013-05-15 14:36:00,
2013-05-15 10:37:00,75.8,59.0,30.20,East,96,8.0,11.8,56,0.00,,,0.00,TxWx,2013-05-15 14:37:00,
2013-05-15 10:39:00,76.2,59.0,30.20,NE,51,11.8,11.8,56,0.00,,,0.00,TxWx,2013-05-15 14:39:00,
2013-05-15 10:41:00,76.5,59.0,30.20,East,96,7.4,8.0,55,0.00,,,0.00,TxWx,2013-05-15 14:41:00,
2013-05-15 10:42:00,76.4,58.0,30.20,East,96,8.0,9.3,55,0.00,,,0.00,TxWx,2013-05-15 14:42:00,
2013-05-15 10:43:00,76.3,58.0,30.20,ENE,73,8.0,9.9,53,0.00,,,0.00,TxWx,2013-05-15 14:43:00,
2013-05-15 10:46:00,76.1,59.0,30.20,East,96,11.1,11.1,55,0.00,,,0.00,TxWx,2013-05-15 14:46:00,
2013-05-15 10:50:00,76.4,58.0,30.20,East,96,13.0,13.0,54,0.00,,,0.00,TxWx,2013-05-15 14:50:00,
2013-05-15 10:51:00,77.0,59.0,30.20,NNW,343,5.0,6.8,55,0.00,,,0.00,TxWx,2013-05-15 14:51:00,
2013-05-15 10:52:00,76.8,59.0,30.21,East,96,11.8,11.8,53,0.00,,,0.00,TxWx,2013-05-15 14:52:00,
2013-05-15 10:56:00,76.8,59.0,30.20,ESE,118,10.5,11.1,54,0.00,,,0.00,TxWx,2013-05-15 14:56:00,
2013-05-15 10:57:00,76.9,59.0,30.20,East,96,8.7,10.5,54,0.00,,,0.00,TxWx,2013-05-15 14:57:00,
2013-05-15 10:59:00,76.8,59.0,30.20,ENE,73,9.3,9.9,53,0.00,,,0.00,TxWx,2013-05-15 14:59:00,
2013-05-15 11:02:00,76.8,58.0,30.20,ENE,73,11.8,11.8,52,0.00,,,0.00,TxWx,2013-05-15 15:02:00,
2013-05-15 11:03:00,76.8,59.0,30.20,East,96,12.4,12.4,54,0.00,,,0.00,TxWx,2013-05-15 15:03:00,
2013-05-15 11:07:00,77.1,59.0,30.21,East,96,9.3,9.3,54,0.00,,,0.00,TxWx,2013-05-15 15:07:00,
2013-05-15 11:08:00,76.8,58.0,30.20,ESE,118,7.4,7.4,53,0.00,,,0.00,TxWx,2013-05-15 15:08:00,
2013-05-15 11:12:00,77.7,60.0,30.20,East,96,6.2,6.2,54,0.00,,,0.00,TxWx,2013-05-15 15:12:00,
2013-05-15 11:13:00,77.7,60.0,30.20,ENE,73,8.7,8.7,54,0.00,,,0.00,TxWx,2013-05-15 15:13:00,
2013-05-15 11:15:00,77.8,60.0,30.21,ENE,73,4.3,4.3,55,0.00,,,0.00,TxWx,2013-05-15 15:15:00,
2013-05-15 11:18:00,77.0,58.0,30.20,ENE,73,10.5,12.4,53,0.00,,,0.00,TxWx,2013-05-15 15:18:00,
2013-05-15 11:22:00,77.5,60.0,30.21,NE,51,6.2,6.8,54,0.00,,,0.00,TxWx,2013-05-15 15:22:00,
2013-05-15 11:26:00,77.4,59.0,30.20,East,96,9.3,9.3,53,0.00,,,0.00,TxWx,2013-05-15 15:26:00,
2013-05-15 11:27:00,77.5,59.0,30.21,East,96,5.0,6.2,54,0.00,,,0.00,TxWx,2013-05-15 15:27:00,
2013-05-15 11:28:00,77.4,59.0,30.21,ENE,73,8.7,8.7,54,0.00,,,0.00,TxWx,2013-05-15 15:28:00,
2013-05-15 11:29:00,77.6,60.0,30.21,ENE,73,6.2,6.2,55,0.00,,,0.00,TxWx,2013-05-15 15:29:00,
2013-05-15 11:32:00,76.9,58.0,30.21,ENE,73,6.8,6.8,53,0.00,,,0.00,TxWx,2013-05-15 15:32:00,
2013-05-15 11:35:00,77.8,60.0,30.21,NE,51,5.6,5.6,55,0.00,,,0.00,TxWx,2013-05-15 15:35:00,
2013-05-15 11:37:00,77.4,58.0,30.21,ESE,118,8.7,8.7,53,0.00,,,0.00,TxWx,2013-05-15 15:37:00,
2013-05-15 11:42:00,77.3,59.0,30.21,East,96,9.9,9.9,55,0.00,,,0.00,TxWx,2013-05-15 15:42:00,
2013-05-15 11:43:00,77.4,59.0,30.21,East,96,7.4,8.7,54,0.00,,,0.00,TxWx,2013-05-15 15:43:00,
2013-05-15 11:44:00,77.5,60.0,30.21,East,96,4.3,4.3,54,0.00,,,0.00,TxWx,2013-05-15 15:44:00,
2013-05-15 11:48:00,77.9,60.0,30.21,SSE,163,4.3,6.2,55,0.00,,,0.00,TxWx,2013-05-15 15:48:00,
2013-05-15 11:49:00,77.3,58.0,30.21,East,96,11.1,11.1,53,0.00,,,0.00,TxWx,2013-05-15 15:49:00,
2013-05-15 11:50:00,77.2,59.0,30.21,East,96,10.5,10.5,54,0.00,,,0.00,TxWx,2013-05-15 15:50:00,
2013-05-15 11:51:00,77.0,58.0,30.21,East,96,7.4,7.4,53,0.00,,,0.00,TxWx,2013-05-15 15:51:00,
2013-05-15 11:53:00,77.3,59.0,30.21,ENE,73,11.1,11.1,55,0.00,,,0.00,TxWx,2013-05-15 15:53:00,
2013-05-15 11:54:00,77.3,59.0,30.21,ENE,73,8.0,8.7,54,0.00,,,0.00,TxWx,2013-05-15 15:54:00,
2013-05-15 11:55:00,77.5,60.0,30.21,East,96,12.4,12.4,55,0.00,,,0.00,TxWx,2013-05-15 15:55:00,
2013-05-15 11:56:00,77.0,58.0,30.21,East,96,9.3,9.3,52,0.00,,,0.00,TxWx,2013-05-15 15:56:00,
2013-05-15 11:59:00,77.3,59.0,30.21,ENE,73,6.8,6.8,53,0.00,,,0.00,TxWx,2013-05-15 15:59:00,
2013-05-15 12:00:00,76.9,59.0,30.21,NE,51,8.0,9.3,54,0.00,,,0.00,TxWx,2013-05-15 16:00:00,
2013-05-15 12:01:00,77.2,59.0,30.21,NE,51,6.2,6.8,55,0.00,,,0.00,TxWx,2013-05-15 16:01:00,
2013-05-15 12:03:00,77.6,60.0,30.21,NE,51,3.7,5.0,54,0.00,,,0.00,TxWx,2013-05-15 16:03:00,
2013-05-15 12:05:00,77.2,59.0,30.20,ENE,73,9.3,9.3,54,0.00,,,0.00,TxWx,2013-05-15 16:05:00,
2013-05-15 12:06:00,77.3,59.0,30.20,ENE,73,9.3,9.9,54,0.00,,,0.00,TxWx,2013-05-15 16:06:00,
2013-05-15 12:07:00,77.2,59.0,30.20,East,96,11.1,11.1,54,0.00,,,0.00,TxWx,2013-05-15 16:07:00,
2013-05-15 12:10:00,77.9,60.0,30.20,ENE,73,5.0,6.8,55,0.00,,,0.00,TxWx,2013-05-15 16:10:00,
2013-05-15 12:11:00,77.7,60.0,30.20,NE,51,7.4,7.4,54,0.00,,,0.00,TxWx,2013-05-15 16:11:00,
2013-05-15 12:12:00,77.4,59.0,30.20,NE,51,7.4,7.4,53,0.00,,,0.00,TxWx,2013-05-15 16:12:00,
2013-05-15 12:16:00,77.4,59.0,30.20,ESE,118,12.4,12.4,54,0.00,,,0.00,TxWx,2013-05-15 16:16:00,
2013-05-15 12:17:00,77.0,58.0,30.20,East,96,9.3,9.3,52,0.00,,,0.00,TxWx,2013-05-15 16:17:00,
2013-05-15 12:19:00,77.5,59.0,30.20,NE,51,5.0,5.0,55,0.00,,,0.00,TxWx,2013-05-15 16:19:00,
2013-05-15 12:21:00,77.1,59.0,30.20,East,96,11.1,13.0,54,0.00,,,0.00,TxWx,2013-05-15 16:21:00,
2013-05-15 12:22:00,77.0,59.0,30.20,ENE,73,8.0,11.1,54,0.00,,,0.00,TxWx,2013-05-15 16:22:00,
2013-05-15 12:24:00,76.8,59.0,30.20,East,96,10.5,11.1,54,0.00,,,0.00,TxWx,2013-05-15 16:24:00,
2013-05-15 12:26:00,76.8,59.0,30.20,ESE,118,6.8,8.0,54,0.00,,,0.00,TxWx,2013-05-15 16:26:00,
2013-05-15 12:27:00,76.8,60.0,30.20,East,96,10.5,10.5,56,0.00,,,0.00,TxWx,2013-05-15 16:27:00,
2013-05-15 12:30:00,77.2,59.0,30.20,ESE,118,8.0,8.0,54,0.00,,,0.00,TxWx,2013-05-15 16:30:00,
2013-05-15 12:31:00,77.4,59.0,30.20,NE,51,7.4,8.7,54,0.00,,,0.00,TxWx,2013-05-15 16:31:00,
2013-05-15 12:35:00,77.7,59.0,30.20,NE,51,5.6,7.4,53,0.00,,,0.00,TxWx,2013-05-15 16:35:00,
2013-05-15 12:36:00,77.8,59.0,30.20,NNE,28,6.2,7.4,52,0.00,,,0.00,TxWx,2013-05-15 16:36:00,
2013-05-15 12:38:00,78.0,60.0,30.20,ENE,73,8.0,8.0,54,0.00,,,0.00,TxWx,2013-05-15 16:38:00,
2013-05-15 12:41:00,77.6,59.0,30.20,ENE,73,9.3,10.5,53,0.00,,,0.00,TxWx,2013-05-15 16:41:00,
2013-05-15 12:42:00,77.1,58.0,30.20,East,96,8.0,8.7,52,0.00,,,0.00,TxWx,2013-05-15 16:42:00,
2013-05-15 12:43:00,77.1,58.0,30.20,ESE,118,7.4,7.4,52,0.00,,,0.00,TxWx,2013-05-15 16:43:00,
2013-05-15 12:44:00,77.5,59.0,30.20,East,96,7.4,8.0,54,0.00,,,0.00,TxWx,2013-05-15 16:44:00,
2013-05-15 12:46:00,77.4,58.0,30.20,ESE,118,11.8,11.8,53,0.00,,,0.00,TxWx,2013-05-15 16:46:00,
2013-05-15 12:47:00,77.0,59.0,30.20,East,96,11.8,11.8,54,0.00,,,0.00,TxWx,2013-05-15 16:47:00,
2013-05-15 12:50:00,76.7,59.0,30.20,ESE,118,9.9,9.9,54,0.00,,,0.00,TxWx,2013-05-15 16:50:00,
2013-05-15 12:51:00,76.5,59.0,30.20,East,96,9.3,11.1,54,0.00,,,0.00,TxWx,2013-05-15 16:51:00,
2013-05-15 12:54:00,77.0,60.0,30.20,East,96,11.8,11.8,55,0.00,,,0.00,TxWx,2013-05-15 16:54:00,
2013-05-15 12:55:00,76.8,59.0,30.20,East,96,10.5,11.1,55,0.00,,,0.00,TxWx,2013-05-15 16:55:00,
2013-05-15 12:57:00,76.5,60.0,30.20,East,96,11.8,11.8,55,0.00,,,0.00,TxWx,2013-05-15 16:57:00,
2013-05-15 12:59:00,76.6,60.0,30.20,East,96,7.4,10.5,55,0.00,,,0.00,TxWx,2013-05-15 16:59:00,
2013-05-15 13:01:00,77.1,61.0,30.20,East,96,6.8,6.8,57,0.00,,,0.00,TxWx,2013-05-15 17:01:00,
2013-05-15 13:04:00,76.5,60.0,30.20,East,96,10.5,11.1,56,0.00,,,0.00,TxWx,2013-05-15 17:04:00,
2013-05-15 13:05:00,76.6,60.0,30.20,East,96,9.3,9.9,56,0.00,,,0.00,TxWx,2013-05-15 17:05:00,
2013-05-15 13:09:00,76.5,60.0,30.20,East,96,9.9,11.1,55,0.00,,,0.00,TxWx,2013-05-15 17:09:00,
2013-05-15 13:10:00,76.7,60.0,30.20,East,96,9.3,9.9,56,0.00,,,0.00,TxWx,2013-05-15 17:10:00,
2013-05-15 13:15:00,77.0,60.0,30.19,East,96,11.8,11.8,57,0.00,,,0.00,TxWx,2013-05-15 17:15:00,
2013-05-15 13:16:00,77.3,61.0,30.19,East,96,6.8,10.5,57,0.00,,,0.00,TxWx,2013-05-15 17:16:00,
2013-05-15 13:19:00,77.1,60.0,30.19,East,96,10.5,10.5,57,0.00,,,0.00,TxWx,2013-05-15 17:19:00,
2013-05-15 13:21:00,76.5,59.0,30.19,East,96,9.3,9.3,53,0.00,,,0.00,TxWx,2013-05-15 17:21:00,
2013-05-15 13:24:00,77.4,60.0,30.19,North,6,5.0,6.2,57,0.00,,,0.00,TxWx,2013-05-15 17:24:00,
2013-05-15 13:25:00,77.3,60.0,30.19,NE,51,10.5,10.5,56,0.00,,,0.00,TxWx,2013-05-15 17:25:00,
2013-05-15 13:27:00,76.9,59.0,30.19,East,96,11.8,13.0,54,0.00,,,0.00,TxWx,2013-05-15 17:27:00,
2013-05-15 13:30:00,76.7,59.0,30.19,SE,141,8.7,9.9,55,0.00,,,0.00,TxWx,2013-05-15 17:30:00,
2013-05-15 13:31:00,76.6,59.0,30.19,East,96,9.9,9.9,55,0.00,,,0.00,TxWx,2013-05-15 17:31:00,
2013-05-15 13:33:00,76.9,60.0,30.19,East,96,9.9,9.9,56,0.00,,,0.00,TxWx,2013-05-15 17:33:00,
2013-05-15 13:34:00,76.9,60.0,30.19,East,96,9.9,13.0,56,0.00,,,0.00,TxWx,2013-05-15 17:34:00,
2013-05-15 13:35:00,76.7,58.0,30.19,East,96,10.5,10.5,53,0.00,,,0.00,TxWx,2013-05-15 17:35:00,
2013-05-15 13:37:00,76.7,58.0,30.19,ENE,73,9.3,9.3,53,0.00,,,0.00,TxWx,2013-05-15 17:37:00,
2013-05-15 13:40:00,76.6,58.0,30.19,East,96,9.3,9.9,53,0.00,,,0.00,TxWx,2013-05-15 17:40:00,
2013-05-15 13:41:00,76.8,59.0,30.18,ESE,118,12.4,12.4,54,0.00,,,0.00,TxWx,2013-05-15 17:41:00,
2013-05-15 13:43:00,77.2,60.0,30.19,NE,51,8.0,8.0,56,0.00,,,0.00,TxWx,2013-05-15 17:43:00,
2013-05-15 13:44:00,76.9,59.0,30.18,NE,51,8.7,10.5,54,0.00,,,0.00,TxWx,2013-05-15 17:44:00,
2013-05-15 13:46:00,76.7,59.0,30.18,East,96,11.8,11.8,54,0.00,,,0.00,TxWx,2013-05-15 17:46:00,
2013-05-15 13:47:00,76.7,59.0,30.19,East,96,12.4,13.0,54,0.00,,,0.00,TxWx,2013-05-15 17:47:00,
2013-05-15 13:48:00,76.8,59.0,30.18,ESE,118,8.7,9.9,55,0.00,,,0.00,TxWx,2013-05-15 17:48:00,
2013-05-15 13:50:00,77.3,62.0,30.18,ENE,73,9.3,10.5,59,0.00,,,0.00,TxWx,2013-05-15 17:50:00,
2013-05-15 13:52:00,77.3,60.0,30.18,NE,51,8.0,10.5,56,0.00,,,0.00,TxWx,2013-05-15 17:52:00,
2013-05-15 13:54:00,76.9,58.0,30.18,East,96,11.8,11.8,53,0.00,,,0.00,TxWx,2013-05-15 17:54:00,
2013-05-15 13:55:00,76.8,58.0,30.18,ESE,118,9.3,11.1,53,0.00,,,0.00,TxWx,2013-05-15 17:55:00,
2013-05-15 13:57:00,77.1,58.0,30.18,ENE,73,8.0,8.7,52,0.00,,,0.00,TxWx,2013-05-15 17:57:00,
2013-05-15 14:00:00,76.5,57.0,30.18,East,96,13.6,13.6,52,0.00,,,0.00,TxWx,2013-05-15 18:00:00,
2013-05-15 14:02:00,76.6,59.0,30.18,East,96,12.4,13.6,54,0.00,,,0.00,TxWx,2013-05-15 18:02:00,
2013-05-15 14:03:00,76.5,59.0,30.18,East,96,13.6,13.6,53,0.00,,,0.00,TxWx,2013-05-15 18:03:00,
2013-05-15 14:06:00,76.7,60.0,30.18,East,96,12.4,12.4,55,0.00,,,0.00,TxWx,2013-05-15 18:06:00,
2013-05-15 14:07:00,77.1,60.0,30.18,East,96,9.3,9.9,55,0.00,,,0.00,TxWx,2013-05-15 18:07:00,
2013-05-15 14:08:00,76.9,59.0,30.18,East,96,11.8,11.8,55,0.00,,,0.00,TxWx,2013-05-15 18:08:00,
2013-05-15 14:10:00,77.0,60.0,30.18,East,96,11.8,13.0,56,0.00,,,0.00,TxWx,2013-05-15 18:10:00,
2013-05-15 14:11:00,76.8,59.0,30.18,East,96,11.8,11.8,55,0.00,,,0.00,TxWx,2013-05-15 18:11:00,
2013-05-15 14:12:00,76.8,59.0,30.18,East,96,11.1,11.1,54,0.00,,,0.00,TxWx,2013-05-15 18:12:00,
2013-05-15 14:15:00,76.7,60.0,30.18,East,96,9.9,9.9,55,0.00,,,0.00,TxWx,2013-05-15 18:15:00,
2013-05-15 14:16:00,77.2,61.0,30.18,NW,321,14.2,14.2,57,0.00,,,0.00,TxWx,2013-05-15 18:16:00,
2013-05-15 14:21:00,77.0,60.0,30.17,East,96,9.9,9.9,56,0.00,,,0.00,TxWx,2013-05-15 18:21:00,
2013-05-15 14:23:00,77.0,60.0,30.17,East,96,14.2,14.2,56,0.00,,,0.00,TxWx,2013-05-15 18:23:00,
2013-05-15 14:26:00,76.7,59.0,30.17,East,96,11.8,13.0,54,0.00,,,0.00,TxWx,2013-05-15 18:26:00,
2013-05-15 14:27:00,77.0,60.0,30.17,ENE,73,9.3,9.3,56,0.00,,,0.00,TxWx,2013-05-15 18:27:00,
2013-05-15 14:28:00,77.0,61.0,30.17,East,96,10.5,10.5,57,0.00,,,0.00,TxWx,2013-05-15 18:28:00,
2013-05-15 14:32:00,77.6,61.0,30.17,ENE,73,8.0,8.0,56,0.00,,,0.00,TxWx,2013-05-15 18:32:00,
2013-05-15 14:33:00,77.5,60.0,30.17,East,96,11.1,14.9,57,0.00,,,0.00,TxWx,2013-05-15 18:33:00,
2013-05-15 14:38:00,77.2,60.0,30.17,ENE,73,8.0,8.0,56,0.00,,,0.00,TxWx,2013-05-15 18:38:00,
2013-05-15 14:39:00,77.1,59.0,30.17,ESE,118,12.4,13.6,55,0.00,,,0.00,TxWx,2013-05-15 18:39:00,
2013-05-15 14:44:00,77.5,60.0,30.17,East,96,8.7,9.3,56,0.00,,,0.00,TxWx,2013-05-15 18:44:00,
2013-05-15 14:45:00,77.4,60.0,30.16,ENE,73,9.9,11.1,56,0.00,,,0.00,TxWx,2013-05-15 18:45:00,
2013-05-15 14:46:00,77.3,60.0,30.16,East,96,11.8,11.8,56,0.00,,,0.00,TxWx,2013-05-15 18:46:00,
2013-05-15 14:49:00,77.1,60.0,30.16,East,96,9.9,9.9,56,0.00,,,0.00,TxWx,2013-05-15 18:49:00,
2013-05-15 14:51:00,77.0,60.0,30.16,East,96,10.5,10.5,55,0.00,,,0.00,TxWx,2013-05-15 18:51:00,
2013-05-15 14:53:00,77.2,60.0,30.16,East,96,10.5,11.1,56,0.00,,,0.00,TxWx,2013-05-15 18:53:00,
2013-05-15 14:54:00,77.2,60.0,30.16,East,96,10.5,10.5,55,0.00,,,0.00,TxWx,2013-05-15 18:54:00,
2013-05-15 14:57:00,77.5,60.0,30.16,East,96,8.7,8.7,55,0.00,,,0.00,TxWx,2013-05-15 18:57:00,
2013-05-15 15:00:00,77.2,60.0,30.16,ESE,118,8.7,9.3,56,0.00,,,0.00,TxWx,2013-05-15 19:00:00,
2013-05-15 15:02:00,77.3,60.0,30.16,NNE,28,9.3,9.9,56,0.00,,,0.00,TxWx,2013-05-15 19:02:00,
2013-05-15 15:03:00,77.3,59.0,30.16,East,96,10.5,10.5,55,0.00,,,0.00,TxWx,2013-05-15 19:03:00,
2013-05-15 15:05:00,76.9,59.0,30.16,East,96,11.8,13.0,54,0.00,,,0.00,TxWx,2013-05-15 19:05:00,
2013-05-15 15:07:00,76.9,59.0,30.16,East,96,10.5,10.5,54,0.00,,,0.00,TxWx,2013-05-15 19:07:00,
2013-05-15 15:10:00,77.2,60.0,30.16,East,96,9.3,9.3,55,0.00,,,0.00,TxWx,2013-05-15 19:10:00,
2013-05-15 15:11:00,77.2,60.0,30.16,ESE,118,8.0,9.3,55,0.00,,,0.00,TxWx,2013-05-15 19:11:00,
2013-05-15 15:13:00,77.5,61.0,30.16,East,96,6.8,6.8,56,0.00,,,0.00,TxWx,2013-05-15 19:13:00,
2013-05-15 15:16:00,77.1,60.0,30.16,East,96,11.1,11.1,56,0.00,,,0.00,TxWx,2013-05-15 19:16:00,
2013-05-15 15:17:00,77.2,60.0,30.16,NE,51,8.7,9.9,57,0.00,,,0.00,TxWx,2013-05-15 19:17:00,
2013-05-15 15:18:00,77.2,60.0,30.16,ENE,73,7.4,7.4,57,0.00,,,0.00,TxWx,2013-05-15 19:18:00,
2013-05-15 15:21:00,77.8,62.0,30.15,ENE,73,7.4,7.4,59,0.00,,,0.00,TxWx,2013-05-15 19:21:00,
2013-05-15 15:23:00,77.6,62.0,30.16,East,96,7.4,9.3,58,0.00,,,0.00,TxWx,2013-05-15 19:23:00,
2013-05-15 15:24:00,77.6,62.0,30.15,East,96,5.6,5.6,58,0.00,,,0.00,TxWx,2013-05-15 19:24:00,
2013-05-15 15:26:00,77.4,62.0,30.15,ENE,73,9.3,9.3,59,0.00,,,0.00,TxWx,2013-05-15 19:26:00,
2013-05-15 15:27:00,77.4,61.0,30.15,East,96,9.3,9.3,58,0.00,,,0.00,TxWx,2013-05-15 19:27:00,
2013-05-15 15:29:00,77.8,62.0,30.16,NE,51,11.8,11.8,59,0.00,,,0.00,TxWx,2013-05-15 19:29:00,
2013-05-15 15:32:00,77.8,63.0,30.15,ENE,73,8.0,8.0,60,0.00,,,0.00,TxWx,2013-05-15 19:32:00,
2013-05-15 15:33:00,77.3,61.0,30.15,ESE,118,8.0,8.7,59,0.00,,,0.00,TxWx,2013-05-15 19:33:00,
2013-05-15 15:34:00,77.4,62.0,30.15,East,96,8.7,8.7,59,0.00,,,0.00,TxWx,2013-05-15 19:34:00,
2013-05-15 15:38:00,77.5,62.0,30.15,East,96,12.4,13.6,59,0.00,,,0.00,TxWx,2013-05-15 19:38:00,
2013-05-15 15:39:00,77.5,61.0,30.15,East,96,6.8,6.8,57,0.00,,,0.00,TxWx,2013-05-15 19:39:00,
2013-05-15 15:43:00,77.9,62.0,30.15,East,96,8.0,8.0,58,0.00,,,0.00,TxWx,2013-05-15 19:43:00,
2013-05-15 15:44:00,77.6,62.0,30.14,East,96,11.1,11.8,58,0.00,,,0.00,TxWx,2013-05-15 19:44:00,
2013-05-15 15:45:00,77.7,62.0,30.14,ENE,73,10.5,10.5,59,0.00,,,0.00,TxWx,2013-05-15 19:45:00,
2013-05-15 15:49:00,77.2,60.0,30.14,East,96,8.0,8.0,57,0.00,,,0.00,TxWx,2013-05-15 19:49:00,
2013-05-15 15:50:00,77.5,62.0,30.14,ENE,73,5.6,8.0,58,0.00,,,0.00,TxWx,2013-05-15 19:50:00,
2013-05-15 15:51:00,77.5,62.0,30.13,East,96,7.4,8.7,58,0.00,,,0.00,TxWx,2013-05-15 19:51:00,
2013-05-15 15:54:00,77.2,61.0,30.13,NE,51,11.1,13.6,58,0.00,,,0.00,TxWx,2013-05-15 19:54:00,
2013-05-15 15:56:00,77.6,63.0,30.13,ENE,73,10.5,12.4,60,0.00,,,0.00,TxWx,2013-05-15 19:56:00,
2013-05-15 15:57:00,77.3,62.0,30.13,East,96,11.1,11.8,59,0.00,,,0.00,TxWx,2013-05-15 19:57:00,
2013-05-15 16:00:00,77.3,62.0,30.13,ENE,73,7.4,9.3,59,0.00,,,0.00,TxWx,2013-05-15 20:00:00,
2013-05-15 16:01:00,77.4,62.0,30.13,ESE,118,9.3,10.5,60,0.00,,,0.00,TxWx,2013-05-15 20:01:00,
2013-05-15 16:02:00,77.3,62.0,30.13,East,96,8.0,13.0,60,0.00,,,0.00,TxWx,2013-05-15 20:02:00,
2013-05-15 16:03:00,77.7,64.0,30.12,East,96,8.7,8.7,62,0.00,,,0.00,TxWx,2013-05-15 20:03:00,
2013-05-15 16:07:00,77.1,62.0,30.12,ENE,73,9.9,11.8,60,0.00,,,0.00,TxWx,2013-05-15 20:07:00,
2013-05-15 16:11:00,77.1,62.0,30.12,East,96,10.5,10.5,60,0.00,,,0.00,TxWx,2013-05-15 20:11:00,
2013-05-15 16:12:00,77.5,63.0,30.12,East,96,10.5,10.5,61,0.00,,,0.00,TxWx,2013-05-15 20:12:00,
2013-05-15 16:13:00,77.6,63.0,30.12,ENE,73,10.5,11.1,61,0.00,,,0.00,TxWx,2013-05-15 20:13:00,
2013-05-15 16:16:00,77.0,62.0,30.12,ESE,118,13.0,13.0,61,0.00,,,0.00,TxWx,2013-05-15 20:16:00,
2013-05-15 16:18:00,77.2,63.0,30.12,East,96,8.0,8.0,62,0.00,,,0.00,TxWx,2013-05-15 20:18:00,
2013-05-15 16:19:00,77.2,63.0,30.12,ENE,73,13.0,13.0,62,0.00,,,0.00,TxWx,2013-05-15 20:19:00,
2013-05-15 16:21:00,77.0,63.0,30.12,East,96,11.8,11.8,62,0.00,,,0.00,TxWx,2013-05-15 20:21:00,
2013-05-15 16:24:00,77.0,63.0,30.12,ENE,73,3.1,4.3,63,0.00,,,0.00,TxWx,2013-05-15 20:24:00,
2013-05-15 16:25:00,76.7,63.0,30.12,East,96,9.9,10.5,63,0.00,,,0.00,TxWx,2013-05-15 20:25:00,
2013-05-15 16:28:00,76.9,63.0,30.12,ENE,73,10.5,10.5,62,0.00,,,0.00,TxWx,2013-05-15 20:28:00,
2013-05-15 16:29:00,76.8,62.0,30.11,ENE,73,11.1,11.1,61,0.00,,,0.00,TxWx,2013-05-15 20:29:00,
2013-05-15 16:30:00,76.9,63.0,30.12,East,96,14.2,16.1,63,0.00,,,0.00,TxWx,2013-05-15 20:30:00,
2013-05-15 16:31:00,76.4,62.0,30.11,East,96,13.6,13.6,61,0.00,,,0.00,TxWx,2013-05-15 20:31:00,
2013-05-15 16:33:00,76.6,63.0,30.11,ENE,73,11.1,13.0,63,0.00,,,0.00,TxWx,2013-05-15 20:33:00,
2013-05-15 16:34:00,76.9,64.0,30.11,East,96,13.0,13.0,64,0.00,,,0.00,TxWx,2013-05-15 20:34:00,
2013-05-15 16:36:00,76.5,62.0,30.11,East,96,14.2,14.9,61,0.00,,,0.00,TxWx,2013-05-15 20:36:00,
2013-05-15 16:37:00,76.2,61.0,30.12,East,96,17.3,17.3,60,0.00,,,0.00,TxWx,2013-05-15 20:37:00,
2013-05-15 16:40:00,76.5,62.0,30.12,East,96,13.6,13.6,61,0.00,,,0.00,TxWx,2013-05-15 20:40:00,
2013-05-15 16:41:00,76.7,63.0,30.11,East,96,11.1,11.1,62,0.00,,,0.00,TxWx,2013-05-15 20:41:00,
2013-05-15 16:42:00,76.2,61.0,30.11,East,96,14.2,16.7,60,0.00,,,0.00,TxWx,2013-05-15 20:42:00,
2013-05-15 16:43:00,76.3,61.0,30.11,East,96,15.5,15.5,60,0.00,,,0.00,TxWx,2013-05-15 20:43:00,
2013-05-15 16:46:00,76.5,62.0,30.11,East,96,11.8,12.4,62,0.00,,,0.00,TxWx,2013-05-15 20:46:00,
2013-05-15 16:49:00,76.1,62.0,30.11,East,96,14.9,16.1,61,0.00,,,0.00,TxWx,2013-05-15 20:49:00,
2013-05-15 16:50:00,76.0,62.0,30.11,East,96,14.2,14.2,61,0.00,,,0.00,TxWx,2013-05-15 20:50:00,
2013-05-15 16:51:00,76.1,62.0,30.11,ESE,118,11.8,11.8,62,0.00,,,0.00,TxWx,2013-05-15 20:51:00,
2013-05-15 16:53:00,76.2,62.0,30.12,East,96,13.6,13.6,62,0.00,,,0.00,TxWx,2013-05-15 20:53:00,
2013-05-15 16:55:00,76.5,64.0,30.11,East,96,11.1,11.1,64,0.00,,,0.00,TxWx,2013-05-15 20:55:00,
2013-05-15 16:57:00,76.8,63.0,30.12,NNE,28,5.6,9.3,63,0.00,,,0.00,TxWx,2013-05-15 20:57:00,
2013-05-15 16:58:00,76.7,63.0,30.12,NE,51,8.7,8.7,63,0.00,,,0.00,TxWx,2013-05-15 20:58:00,
2013-05-15 17:01:00,76.3,63.0,30.11,East,96,14.9,14.9,64,0.00,,,0.00,TxWx,2013-05-15 21:01:00,
2013-05-15 17:03:00,76.4,62.0,30.11,East,96,11.1,11.8,62,0.00,,,0.00,TxWx,2013-05-15 21:03:00,
2013-05-15 17:04:00,76.4,62.0,30.11,East,96,9.3,11.8,63,0.00,,,0.00,TxWx,2013-05-15 21:04:00,
2013-05-15 17:08:00,76.8,64.0,30.11,East,96,9.9,10.5,64,0.00,,,0.00,TxWx,2013-05-15 21:08:00,
2013-05-15 17:09:00,76.3,62.0,30.11,East,96,13.6,13.6,62,0.00,,,0.00,TxWx,2013-05-15 21:09:00,
2013-05-15 17:10:00,76.4,62.0,30.11,East,96,13.0,13.0,63,0.00,,,0.00,TxWx,2013-05-15 21:10:00,
2013-05-15 17:13:00,76.3,62.0,30.11,ENE,73,13.6,13.6,62,0.00,,,0.00,TxWx,2013-05-15 21:13:00,
2013-05-15 17:14:00,76.3,62.0,30.11,ESE,118,13.6,13.6,62,0.00,,,0.00,TxWx,2013-05-15 21:14:00,
2013-05-15 17:15:00,76.4,62.0,30.11,ESE,118,13.0,13.0,62,0.00,,,0.00,TxWx,2013-05-15 21:15:00,
2013-05-15 17:17:00,76.6,64.0,30.11,East,96,13.0,13.0,64,0.00,,,0.00,TxWx,2013-05-15 21:17:00,
2013-05-15 17:19:00,76.7,63.0,30.11,East,96,9.3,13.6,63,0.00,,,0.00,TxWx,2013-05-15 21:19:00,
2013-05-15 17:20:00,76.6,63.0,30.11,East,96,11.1,13.6,62,0.00,,,0.00,TxWx,2013-05-15 21:20:00,
2013-05-15 17:22:00,76.5,63.0,30.11,East,96,11.8,12.4,63,0.00,,,0.00,TxWx,2013-05-15 21:22:00,
2013-05-15 17:26:00,76.7,63.0,30.11,East,96,11.1,11.1,63,0.00,,,0.00,TxWx,2013-05-15 21:26:00,
2013-05-15 17:27:00,76.9,64.0,30.11,East,96,11.8,11.8,64,0.00,,,0.00,TxWx,2013-05-15 21:27:00,
2013-05-15 17:28:00,77.0,64.0,30.11,East,96,10.5,13.0,64,0.00,,,0.00,TxWx,2013-05-15 21:28:00,
2013-05-15 17:31:00,76.3,62.0,30.11,East,96,10.5,10.5,63,0.00,,,0.00,TxWx,2013-05-15 21:31:00,
2013-05-15 17:33:00,76.2,63.0,30.10,East,96,13.0,13.0,64,0.00,,,0.00,TxWx,2013-05-15 21:33:00,
2013-05-15 17:34:00,76.4,63.0,30.10,ESE,118,14.9,14.9,65,0.00,,,0.00,TxWx,2013-05-15 21:34:00,
2013-05-15 17:36:00,75.4,63.0,30.10,East,96,13.0,13.6,67,0.00,,,0.00,TxWx,2013-05-15 21:36:00,
2013-05-15 17:38:00,75.5,64.0,30.10,ESE,118,9.9,11.1,67,0.00,,,0.00,TxWx,2013-05-15 21:38:00,
2013-05-15 17:39:00,75.5,64.0,30.10,East,96,11.1,11.1,67,0.00,,,0.00,TxWx,2013-05-15 21:39:00,
2013-05-15 17:41:00,75.5,65.0,30.10,East,96,12.4,14.9,68,0.00,,,0.00,TxWx,2013-05-15 21:41:00,
2013-05-15 17:42:00,75.3,63.0,30.10,ESE,118,12.4,12.4,67,0.00,,,0.00,TxWx,2013-05-15 21:42:00,
2013-05-15 17:45:00,75.6,65.0,30.10,ESE,118,11.8,11.8,68,0.00,,,0.00,TxWx,2013-05-15 21:45:00,
2013-05-15 17:46:00,75.5,65.0,30.10,ESE,118,8.7,9.3,69,0.00,,,0.00,TxWx,2013-05-15 21:46:00,
2013-05-15 17:48:00,75.8,65.0,30.10,East,96,16.1,17.9,69,0.00,,,0.00,TxWx,2013-05-15 21:48:00,
2013-05-15 17:50:00,75.9,64.0,30.10,ESE,118,14.2,16.7,67,0.00,,,0.00,TxWx,2013-05-15 21:50:00,
2013-05-15 17:53:00,75.8,64.0,30.10,ESE,118,11.1,13.0,67,0.00,,,0.00,TxWx,2013-05-15 21:53:00,
2013-05-15 17:55:00,76.2,65.0,30.10,East,96,14.2,14.2,68,0.00,,,0.00,TxWx,2013-05-15 21:55:00,
2013-05-15 17:57:00,75.9,64.0,30.10,East,96,16.7,16.7,68,0.00,,,0.00,TxWx,2013-05-15 21:57:00,
2013-05-15 18:01:00,75.8,64.0,30.10,ESE,118,13.0,13.0,66,0.00,,,0.00,TxWx,2013-05-15 22:01:00,
2013-05-15 18:02:00,76.0,64.0,30.10,ESE,118,15.5,15.5,68,0.00,,,0.00,TxWx,2013-05-15 22:02:00,
2013-05-15 18:06:00,75.8,64.0,30.10,NNE,28,14.2,15.5,66,0.00,,,0.00,TxWx,2013-05-15 22:06:00,
2013-05-15 18:07:00,76.1,64.0,30.10,East,96,13.0,13.0,67,0.00,,,0.00,TxWx,2013-05-15 22:07:00,
2013-05-15 18:08:00,76.0,64.0,30.10,ESE,118,14.2,16.1,67,0.00,,,0.00,TxWx,2013-05-15 22:08:00,
2013-05-15 18:10:00,75.9,64.0,30.10,East,96,14.9,16.7,67,0.00,,,0.00,TxWx,2013-05-15 22:10:00,
2013-05-15 18:13:00,76.1,64.0,30.10,ESE,118,14.2,14.2,67,0.00,,,0.00,TxWx,2013-05-15 22:13:00,
2013-05-15 18:18:00,75.9,64.0,30.10,East,96,17.9,17.9,67,0.00,,,0.00,TxWx,2013-05-15 22:18:00,
2013-05-15 18:19:00,76.0,64.0,30.10,ESE,118,17.3,17.3,67,0.00,,,0.00,TxWx,2013-05-15 22:19:00,
2013-05-15 18:24:00,76.1,64.0,30.10,East,96,15.5,15.5,66,0.00,,,0.00,TxWx,2013-05-15 22:24:00,
2013-05-15 18:26:00,76.0,64.0,30.10,ESE,118,13.6,14.9,66,0.00,,,0.00,TxWx,2013-05-15 22:26:00,
2013-05-15 18:29:00,75.8,63.0,30.10,ESE,118,16.7,17.3,64,0.00,,,0.00,TxWx,2013-05-15 22:29:00,
2013-05-15 18:30:00,75.8,63.0,30.10,East,96,16.7,17.9,65,0.00,,,0.00,TxWx,2013-05-15 22:30:00,
2013-05-15 18:31:00,76.2,64.0,30.10,ESE,118,14.9,14.9,67,0.00,,,0.00,TxWx,2013-05-15 22:31:00,
2013-05-15 18:36:00,76.0,63.0,30.10,East,96,16.1,16.1,65,0.00,,,0.00,TxWx,2013-05-15 22:36:00,
2013-05-15 18:37:00,75.9,63.0,30.10,ESE,118,16.7,16.7,64,0.00,,,0.00,TxWx,2013-05-15 22:37:00,
2013-05-15 18:38:00,76.0,63.0,30.10,ESE,118,12.4,12.4,64,0.00,,,0.00,TxWx,2013-05-15 22:38:00,
2013-05-15 18:40:00,75.9,63.0,30.10,ESE,118,14.2,14.9,65,0.00,,,0.00,TxWx,2013-05-15 22:40:00,
2013-05-15 18:43:00,76.1,64.0,30.10,East,96,16.1,16.1,66,0.00,,,0.00,TxWx,2013-05-15 22:43:00,
2013-05-15 18:45:00,76.0,64.0,30.10,East,96,15.5,16.1,67,0.00,,,0.00,TxWx,2013-05-15 22:45:00,
2013-05-15 18:47:00,76.0,63.0,30.10,East,96,14.9,14.9,65,0.00,,,0.00,TxWx,2013-05-15 22:47:00,
2013-05-15 18:48:00,75.9,63.0,30.10,East,96,16.7,17.3,64,0.00,,,0.00,TxWx,2013-05-15 22:48:00,
2013-05-15 18:51:00,76.0,64.0,30.10,ENE,73,17.9,17.9,66,0.00,,,0.00,TxWx,2013-05-15 22:51:00,
2013-05-15 18:52:00,75.9,63.0,30.10,East,96,13.6,14.2,65,0.00,,,0.00,TxWx,2013-05-15 22:52:00,
2013-05-15 18:53:00,76.0,64.0,30.10,East,96,17.3,20.4,66,0.00,,,0.00,TxWx,2013-05-15 22:53:00,
2013-05-15 18:55:00,76.0,64.0,30.10,East,96,18.6,19.2,67,0.00,,,0.00,TxWx,2013-05-15 22:55:00,
2013-05-15 18:57:00,75.9,63.0,30.10,East,96,17.3,17.3,65,0.00,,,0.00,TxWx,2013-05-15 22:57:00,
2013-05-15 19:00:00,75.8,63.0,30.10,East,96,15.5,16.7,64,0.00,,,0.00,TxWx,2013-05-15 23:00:00,
2013-05-15 19:02:00,75.8,63.0,30.10,East,96,14.9,17.3,65,0.00,,,0.00,TxWx,2013-05-15 23:02:00,
2013-05-15 19:05:00,75.9,63.0,30.10,East,96,18.6,19.8,65,0.00,,,0.00,TxWx,2013-05-15 23:05:00,
2013-05-15 19:06:00,75.8,63.0,30.10,East,96,13.6,13.6,65,0.00,,,0.00,TxWx,2013-05-15 23:06:00,
2013-05-15 19:10:00,75.8,63.0,30.10,East,96,14.9,14.9,64,0.00,,,0.01,TxWx,2013-05-15 23:10:00,
2013-05-15 19:11:00,75.9,64.0,30.11,ESE,118,16.7,16.7,66,0.06,,,0.01,TxWx,2013-05-15 23:11:00,
2013-05-15 19:13:00,75.7,63.0,30.10,East,96,18.6,18.6,64,0.06,,,0.01,TxWx,2013-05-15 23:13:00,
2013-05-15 19:15:00,75.8,63.0,30.11,East,96,13.6,14.9,64,0.06,,,0.01,TxWx,2013-05-15 23:15:00,
2013-05-15 19:16:00,75.7,63.0,30.10,East,96,15.5,15.5,64,0.06,,,0.01,TxWx,2013-05-15 23:16:00,
2013-05-15 19:18:00,75.8,63.0,30.11,ENE,73,16.1,19.2,65,0.06,,,0.01,TxWx,2013-05-15 23:18:00,
2013-05-15 19:19:00,75.7,63.0,30.11,East,96,15.5,16.7,64,0.06,,,0.01,TxWx,2013-05-15 23:19:00,
2013-05-15 19:21:00,75.7,63.0,30.11,East,96,15.5,17.3,65,0.00,,,0.01,TxWx,2013-05-15 23:21:00,
2013-05-15 19:24:00,76.0,64.0,30.11,East,96,13.0,13.6,66,0.00,,,0.01,TxWx,2013-05-15 23:24:00,
2013-05-15 19:25:00,75.8,64.0,30.11,East,96,14.9,14.9,66,0.00,,,0.01,TxWx,2013-05-15 23:25:00,
2013-05-15 19:26:00,75.9,64.0,30.11,East,96,13.0,15.5,66,0.00,,,0.01,TxWx,2013-05-15 23:26:00,
2013-05-15 19:28:00,75.8,63.0,30.11,East,96,14.9,14.9,65,0.00,,,0.01,TxWx,2013-05-15 23:28:00,
2013-05-15 19:29:00,75.8,63.0,30.11,ESE,118,13.0,14.2,64,0.00,,,0.01,TxWx,2013-05-15 23:29:00,
2013-05-15 19:32:00,76.0,64.0,30.11,East,96,15.5,15.5,66,0.00,,,0.01,TxWx,2013-05-15 23:32:00,
2013-05-15 19:33:00,75.8,63.0,30.11,ESE,118,14.2,16.7,64,0.00,,,0.01,TxWx,2013-05-15 23:33:00,
2013-05-15 19:34:00,75.9,63.0,30.11,East,96,16.1,16.1,64,0.00,,,0.01,TxWx,2013-05-15 23:34:00,
2013-05-15 19:36:00,75.8,63.0,30.11,East,96,16.7,16.7,64,0.00,,,0.01,TxWx,2013-05-15 23:36:00,
2013-05-15 19:37:00,76.0,64.0,30.11,East,96,14.9,16.7,66,0.00,,,0.01,TxWx,2013-05-15 23:37:00,
2013-05-15 19:39:00,75.8,63.0,30.11,East,96,13.6,14.2,65,0.00,,,0.01,TxWx,2013-05-15 23:39:00,
2013-05-15 19:40:00,75.6,62.0,30.11,East,96,14.2,14.2,63,0.00,,,0.01,TxWx,2013-05-15 23:40:00,
2013-05-15 19:42:00,75.6,63.0,30.11,East,96,14.2,16.7,64,0.00,,,0.01,TxWx,2013-05-15 23:42:00,
2013-05-15 19:43:00,75.6,63.0,30.10,East,96,17.3,17.3,64,0.00,,,0.02,TxWx,2013-05-15 23:43:00,
2013-05-15 19:48:00,75.7,63.0,30.10,East,96,20.4,20.4,65,0.00,,,0.02,TxWx,2013-05-15 23:48:00,
2013-05-15 19:49:00,75.8,64.0,30.11,East,96,14.9,16.1,66,0.00,,,0.02,TxWx,2013-05-15 23:49:00,
2013-05-15 19:54:00,75.8,63.0,30.10,East,96,13.6,14.9,65,0.06,,,0.02,TxWx,2013-05-15 23:54:00,
2013-05-15 19:55:00,75.7,63.0,30.10,ESE,118,14.9,14.9,65,0.06,,,0.02,TxWx,2013-05-15 23:55:00,
2013-05-15 19:56:00,75.9,64.0,30.10,East,96,15.5,15.5,67,0.06,,,0.02,TxWx,2013-05-15 23:56:00,
2013-05-15 20:00:00,75.6,63.0,30.10,East,96,14.9,16.1,64,0.06,,,0.02,TxWx,2013-05-16 00:00:00,
2013-05-15 20:01:00,75.5,62.0,30.10,ESE,118,17.3,18.6,64,0.00,,,0.02,TxWx,2013-05-16 00:01:00,
2013-05-15 20:03:00,75.8,64.0,30.10,SE,141,14.2,16.1,66,0.00,,,0.02,TxWx,2013-05-16 00:03:00,
2013-05-15 20:05:00,75.5,63.0,30.10,East,96,14.9,14.9,65,0.00,,,0.02,TxWx,2013-05-16 00:05:00,
2013-05-15 20:06:00,75.7,64.0,30.10,East,96,15.5,15.5,66,0.00,,,0.02,TxWx,2013-05-16 00:06:00,
2013-05-15 20:08:00,75.7,64.0,30.10,East,96,18.6,18.6,66,0.00,,,0.02,TxWx,2013-05-16 00:08:00,
2013-05-15 20:09:00,75.6,63.0,30.10,East,96,15.5,15.5,65,0.00,,,0.02,TxWx,2013-05-16 00:09:00,
2013-05-15 20:11:00,75.5,63.0,30.10,East,96,13.6,13.6,64,0.00,,,0.02,TxWx,2013-05-16 00:11:00,
2013-05-15 20:12:00,75.5,62.0,30.10,ESE,118,17.3,17.3,64,0.00,,,0.02,TxWx,2013-05-16 00:12:00,
2013-05-15 20:13:00,75.7,63.0,30.10,East,96,16.7,17.9,64,0.00,,,0.03,TxWx,2013-05-16 00:13:00,
2013-05-15 20:15:00,75.5,63.0,30.10,ESE,118,15.5,16.1,64,0.00,,,0.03,TxWx,2013-05-16 00:15:00,
2013-05-15 20:19:00,75.5,63.0,30.10,East,96,17.3,17.3,65,0.00,,,0.05,TxWx,2013-05-16 00:19:00,
2013-05-15 20:20:00,75.8,63.0,30.10,ESE,118,16.1,16.1,65,0.00,,,0.05,TxWx,2013-05-16 00:20:00,
2013-05-15 20:21:00,75.6,64.0,30.10,East,96,16.7,17.9,66,0.18,,,0.05,TxWx,2013-05-16 00:21:00,
2013-05-15 20:22:00,75.6,63.0,30.10,East,96,18.6,18.6,65,0.18,,,0.05,TxWx,2013-05-16 00:22:00,
2013-05-15 20:25:00,75.6,64.0,30.10,East,96,16.1,19.8,66,0.18,,,0.05,TxWx,2013-05-16 00:25:00,
2013-05-15 20:27:00,75.7,63.0,30.10,East,96,19.2,19.2,65,0.18,,,0.05,TxWx,2013-05-16 00:27:00,
2013-05-15 20:28:00,75.4,62.0,30.10,East,96,21.7,21.7,64,0.18,,,0.05,TxWx,2013-05-16 00:28:00,
2013-05-15 20:32:00,75.5,63.0,30.10,East,96,19.8,20.4,64,0.00,,,0.07,TxWx,2013-05-16 00:32:00,
2013-05-15 20:33:00,75.6,63.0,30.10,East,96,16.7,17.3,64,0.00,,,0.07,TxWx,2013-05-16 00:33:00,
2013-05-15 20:34:00,75.4,62.0,30.10,ESE,118,15.5,16.1,64,0.00,,,0.07,TxWx,2013-05-16 00:34:00,
2013-05-15 20:39:00,75.4,62.0,30.10,ESE,118,19.8,19.8,64,0.00,,,0.07,TxWx,2013-05-16 00:39:00,
2013-05-15 20:40:00,75.5,62.0,30.10,ESE,118,16.7,16.7,63,0.00,,,0.07,TxWx,2013-05-16 00:40:00,
2013-05-15 20:45:00,75.6,63.0,30.10,ESE,118,16.1,17.3,65,0.12,,,0.07,TxWx,2013-05-16 00:45:00,
2013-05-15 20:46:00,75.5,64.0,30.10,East,96,22.3,22.3,66,0.12,,,0.07,TxWx,2013-05-16 00:46:00,
2013-05-15 20:48:00,75.3,62.0,30.10,East,96,15.5,16.1,63,0.12,,,0.07,TxWx,2013-05-16 00:48:00,
2013-05-15 20:50:00,75.4,62.0,30.10,East,96,17.3,17.9,63,0.12,,,0.07,TxWx,2013-05-16 00:50:00,
2013-05-15 20:51:00,75.7,64.0,30.11,ESE,118,14.2,14.2,66,0.00,,,0.07,TxWx,2013-05-16 00:51:00,
2013-05-15 20:54:00,75.5,62.0,30.11,East,96,14.9,14.9,64,0.00,,,0.07,TxWx,2013-05-16 00:54:00,
2013-05-15 20:57:00,75.7,64.0,30.11,East,96,16.1,17.9,66,0.00,,,0.07,TxWx,2013-05-16 00:57:00,
2013-05-15 20:59:00,75.5,62.0,30.11,East,96,14.9,14.9,63,0.00,,,0.07,TxWx,2013-05-16 00:59:00,
2013-05-15 21:00:00,75.6,63.0,30.11,ESE,118,10.5,13.0,64,0.00,,,0.07,TxWx,2013-05-16 01:00:00,
2013-05-15 21:03:00,75.4,62.0,30.11,ESE,118,16.7,17.3,65,0.00,,,0.07,TxWx,2013-05-16 01:03:00,
2013-05-15 21:04:00,75.4,62.0,30.11,ESE,118,13.0,16.7,63,0.00,,,0.07,TxWx,2013-05-16 01:04:00,
2013-05-15 21:07:00,75.5,62.0,30.11,East,96,12.4,13.6,63,0.00,,,0.09,TxWx,2013-05-16 01:07:00,
2013-05-15 21:08:00,75.5,62.0,30.11,East,96,13.6,15.5,64,0.00,,,0.09,TxWx,2013-05-16 01:08:00,
2013-05-15 21:09:00,75.5,63.0,30.11,East,96,14.9,16.1,64,0.00,,,0.09,TxWx,2013-05-16 01:09:00,
2013-05-15 21:11:00,75.3,61.0,30.11,East,96,13.6,14.9,62,0.12,,,0.09,TxWx,2013-05-16 01:11:00,
2013-05-15 21:13:00,75.7,63.0,30.11,ESE,118,15.5,15.5,64,0.12,,,0.09,TxWx,2013-05-16 01:13:00,
2013-05-15 21:15:00,75.5,62.0,30.11,ESE,118,12.4,13.0,65,0.12,,,0.09,TxWx,2013-05-16 01:15:00,
2013-05-15 21:17:00,75.5,62.0,30.11,East,96,14.2,14.9,65,0.12,,,0.09,TxWx,2013-05-16 01:17:00,
2013-05-15 21:18:00,75.5,62.0,30.11,East,96,12.4,14.2,65,0.12,,,0.09,TxWx,2013-05-16 01:18:00,
2013-05-15 21:19:00,75.7,63.0,30.11,East,96,12.4,13.6,65,0.12,,,0.09,TxWx,2013-05-16 01:19:00,
2013-05-15 21:20:00,75.3,62.0,30.11,East,96,16.1,16.1,63,0.12,,,0.09,TxWx,2013-05-16 01:20:00,
2013-05-15 21:23:00,75.7,63.0,30.11,East,96,14.2,15.5,65,0.00,,,0.09,TxWx,2013-05-16 01:23:00,
2013-05-15 21:24:00,75.5,63.0,30.11,ESE,118,17.9,18.6,65,0.00,,,0.09,TxWx,2013-05-16 01:24:00,
2013-05-15 21:25:00,75.5,63.0,30.11,East,96,14.9,16.1,65,0.00,,,0.09,TxWx,2013-05-16 01:25:00,
2013-05-15 21:27:00,75.5,63.0,30.12,East,96,13.6,13.6,65,0.00,,,0.09,TxWx,2013-05-16 01:27:00,
2013-05-15 21:29:00,75.6,63.0,30.12,ESE,118,13.0,13.0,65,0.00,,,0.09,TxWx,2013-05-16 01:29:00,
2013-05-15 21:30:00,75.4,62.0,30.12,ESE,118,13.0,13.6,65,0.00,,,0.09,TxWx,2013-05-16 01:30:00,
2013-05-15 21:31:00,75.6,63.0,30.12,ESE,118,12.4,12.4,64,0.00,,,0.09,TxWx,2013-05-16 01:31:00,
2013-05-15 21:33:00,75.5,62.0,30.12,East,96,13.0,13.6,63,0.00,,,0.09,TxWx,2013-05-16 01:33:00,
2013-05-15 21:36:00,75.4,61.0,30.12,East,96,11.8,11.8,63,0.00,,,0.09,TxWx,2013-05-16 01:36:00,
2013-05-15 21:37:00,75.3,61.0,30.12,East,96,16.1,16.1,62,0.00,,,0.09,TxWx,2013-05-16 01:37:00,
2013-05-15 21:41:00,75.6,62.0,30.12,East,96,11.1,12.4,63,0.00,,,0.09,TxWx,2013-05-16 01:41:00,
2013-05-15 21:43:00,75.4,61.0,30.12,ESE,118,13.6,13.6,62,0.00,,,0.09,TxWx,2013-05-16 01:43:00,
2013-05-15 21:46:00,75.6,62.0,30.12,East,96,14.2,15.5,63,0.00,,,0.09,TxWx,2013-05-16 01:46:00,
2013-05-15 21:47:00,75.4,61.0,30.12,ESE,118,16.7,16.7,62,0.00,,,0.09,TxWx,2013-05-16 01:47:00,
2013-05-15 21:48:00,75.5,62.0,30.12,East,96,14.9,14.9,62,0.00,,,0.09,TxWx,2013-05-16 01:48:00,
2013-05-15 21:49:00,75.3,61.0,30.12,East,96,17.9,18.6,61,0.00,,,0.09,TxWx,2013-05-16 01:49:00,
2013-05-15 21:52:00,75.4,62.0,30.12,East,96,16.1,16.1,63,0.00,,,0.09,TxWx,2013-05-16 01:52:00,
2013-05-15 21:53:00,75.3,61.0,30.12,East,96,16.7,16.7,63,0.00,,,0.09,TxWx,2013-05-16 01:53:00,
2013-05-15 21:54:00,75.5,61.0,30.12,ESE,118,14.9,14.9,63,0.00,,,0.09,TxWx,2013-05-16 01:54:00,
2013-05-15 21:59:00,75.4,61.0,30.12,East,96,16.7,17.3,62,0.00,,,0.09,TxWx,2013-05-16 01:59:00,
2013-05-15 22:01:00,75.4,62.0,30.12,ESE,118,14.2,15.5,64,0.00,,,0.09,TxWx,2013-05-16 02:01:00,
2013-05-15 22:04:00,75.2,62.0,30.12,ESE,118,16.7,19.2,64,0.00,,,0.09,TxWx,2013-05-16 02:04:00,
2013-05-15 22:05:00,75.3,61.0,30.12,ESE,118,18.6,18.6,63,0.00,,,0.09,TxWx,2013-05-16 02:05:00,
2013-05-15 22:07:00,75.5,61.0,30.12,East,96,14.2,14.2,62,0.00,,,0.09,TxWx,2013-05-16 02:07:00,
2013-05-15 22:09:00,75.4,62.0,30.12,ESE,118,15.5,15.5,63,0.00,,,0.09,TxWx,2013-05-16 02:09:00,
2013-05-15 22:12:00,75.3,61.0,30.12,East,96,17.9,17.9,63,0.00,,,0.09,TxWx,2013-05-16 02:12:00,
2013-05-15 22:14:00,75.3,62.0,30.12,East,96,14.9,15.5,65,0.00,,,0.09,TxWx,2013-05-16 02:14:00,
2013-05-15 22:15:00,75.3,62.0,30.12,ESE,118,17.9,18.6,65,0.00,,,0.09,TxWx,2013-05-16 02:15:00,
2013-05-15 22:19:00,75.3,62.0,30.12,ENE,73,13.6,15.5,63,0.00,,,0.10,TxWx,2013-05-16 02:19:00,
2013-05-15 22:20:00,75.2,61.0,30.12,East,96,14.9,16.1,62,0.00,,,0.10,TxWx,2013-05-16 02:20:00,
2013-05-15 22:23:00,75.2,62.0,30.12,East,96,14.2,14.9,64,0.06,,,0.10,TxWx,2013-05-16 02:23:00,
2013-05-15 22:26:00,75.3,62.0,30.12,East,96,13.0,13.6,64,0.06,,,0.10,TxWx,2013-05-16 02:26:00,
2013-05-15 22:29:00,75.2,62.0,30.12,East,96,22.3,22.3,65,0.06,,,0.10,TxWx,2013-05-16 02:29:00,
2013-05-15 22:30:00,75.2,61.0,30.12,ESE,118,15.5,15.5,63,0.06,,,0.10,TxWx,2013-05-16 02:30:00,
2013-05-15 22:32:00,75.4,62.0,30.12,East,96,14.2,16.1,65,0.00,,,0.10,TxWx,2013-05-16 02:32:00,
2013-05-15 22:33:00,75.3,62.0,30.12,ESE,118,15.5,15.5,64,0.00,,,0.10,TxWx,2013-05-16 02:33:00,
2013-05-15 22:34:00,75.3,62.0,30.12,ESE,118,14.9,14.9,64,0.00,,,0.10,TxWx,2013-05-16 02:34:00,
2013-05-15 22:37:00,75.3,62.0,30.12,ESE,118,14.2,14.2,63,0.00,,,0.10,TxWx,2013-05-16 02:37:00,
2013-05-15 22:39:00,75.3,62.0,30.12,ESE,118,16.1,16.7,64,0.00,,,0.10,TxWx,2013-05-16 02:39:00,
2013-05-15 22:41:00,75.1,61.0,30.13,ESE,118,14.9,16.1,63,0.00,,,0.10,TxWx,2013-05-16 02:41:00,
2013-05-15 22:43:00,75.0,62.0,30.13,East,96,14.9,16.1,64,0.00,,,0.10,TxWx,2013-05-16 02:43:00,
2013-05-15 22:45:00,75.5,63.0,30.12,East,96,13.0,13.0,67,0.00,,,0.10,TxWx,2013-05-16 02:45:00,
2013-05-15 22:46:00,75.2,63.0,30.12,ENE,73,14.2,17.3,66,0.00,,,0.10,TxWx,2013-05-16 02:46:00,
2013-05-15 22:47:00,75.2,62.0,30.13,ESE,118,10.5,11.8,64,0.00,,,0.10,TxWx,2013-05-16 02:47:00,
2013-05-15 22:50:00,75.3,61.0,30.13,ESE,118,13.0,13.6,62,0.00,,,0.10,TxWx,2013-05-16 02:50:00,
2013-05-15 22:51:00,75.3,61.0,30.13,ESE,118,13.6,14.2,63,0.00,,,0.10,TxWx,2013-05-16 02:51:00,
2013-05-15 22:52:00,75.5,63.0,30.13,ESE,118,11.8,13.0,65,0.00,,,0.10,TxWx,2013-05-16 02:52:00,
2013-05-15 22:57:00,75.2,61.0,30.13,ESE,118,14.2,14.9,62,0.00,,,0.10,TxWx,2013-05-16 02:57:00,
2013-05-15 22:58:00,75.4,62.0,30.13,SE,141,11.1,11.8,63,0.00,,,0.10,TxWx,2013-05-16 02:58:00,
2013-05-15 23:00:00,75.4,62.0,30.13,ESE,118,11.1,11.1,65,0.00,,,0.10,TxWx,2013-05-16 03:00:00,
2013-05-15 23:02:00,75.3,62.0,30.13,East,96,13.6,14.9,64,0.00,,,0.10,TxWx,2013-05-16 03:02:00,
2013-05-15 23:03:00,75.1,61.0,30.13,East,96,16.1,16.7,63,0.00,,,0.10,TxWx,2013-05-16 03:03:00,
2013-05-15 23:05:00,75.1,61.0,30.13,East,96,14.9,16.7,63,0.00,,,0.10,TxWx,2013-05-16 03:05:00,
2013-05-15 23:07:00,75.1,62.0,30.13,East,96,16.1,16.7,65,0.00,,,0.10,TxWx,2013-05-16 03:07:00,
2013-05-15 23:08:00,75.2,62.0,30.12,ESE,118,15.5,16.1,64,0.00,,,0.10,TxWx,2013-05-16 03:08:00,
2013-05-15 23:10:00,75.3,62.0,30.13,ESE,118,11.1,12.4,64,0.00,,,0.10,TxWx,2013-05-16 03:10:00,
2013-05-15 23:13:00,75.1,61.0,30.13,ESE,118,15.5,17.3,63,0.00,,,0.10,TxWx,2013-05-16 03:13:00,
2013-05-15 23:15:00,75.1,62.0,30.12,East,96,13.0,13.6,64,0.00,,,0.10,TxWx,2013-05-16 03:15:00,
2013-05-15 23:18:00,75.0,62.0,30.13,ESE,118,16.7,17.3,63,0.00,,,0.10,TxWx,2013-05-16 03:18:00,
2013-05-15 23:19:00,75.2,62.0,30.12,ESE,118,12.4,14.2,64,0.00,,,0.10,TxWx,2013-05-16 03:19:00,
2013-05-15 23:23:00,75.2,63.0,30.12,ESE,118,16.1,17.3,66,0.00,,,0.10,TxWx,2013-05-16 03:23:00,
2013-05-15 23:24:00,75.0,62.0,30.12,East,96,11.8,11.8,64,0.00,,,0.10,TxWx,2013-05-16 03:24:00,
2013-05-15 23:25:00,75.1,62.0,30.12,ESE,118,13.6,16.1,64,0.00,,,0.10,TxWx,2013-05-16 03:25:00,
2013-05-15 23:29:00,75.1,62.0,30.12,ESE,118,16.1,16.7,64,0.00,,,0.10,TxWx,2013-05-16 03:29:00,
2013-05-15 23:30:00,75.1,62.0,30.12,ESE,118,16.7,17.9,64,0.00,,,0.10,TxWx,2013-05-16 03:30:00,
2013-05-15 23:32:00,75.1,62.0,30.12,East,96,16.1,18.6,64,0.00,,,0.10,TxWx,2013-05-16 03:32:00,
2013-05-15 23:35:00,75.0,62.0,30.12,ESE,118,14.2,16.1,64,0.00,,,0.10,TxWx,2013-05-16 03:35:00,
2013-05-15 23:36:00,74.9,62.0,30.12,East,96,16.1,16.7,64,0.00,,,0.10,TxWx,2013-05-16 03:36:00,
2013-05-15 23:38:00,75.0,62.0,30.12,ESE,118,13.0,13.0,64,0.00,,,0.10,TxWx,2013-05-16 03:38:00,
2013-05-15 23:39:00,75.0,62.0,30.12,East,96,16.7,17.9,65,0.00,,,0.10,TxWx,2013-05-16 03:39:00,
2013-05-15 23:40:00,74.8,61.0,30.12,ESE,118,17.3,18.6,63,0.00,,,0.10,TxWx,2013-05-16 03:40:00,
2013-05-15 23:42:00,74.9,62.0,30.12,East,96,13.6,15.5,65,0.00,,,0.10,TxWx,2013-05-16 03:42:00,
2013-05-15 23:44:00,74.7,61.0,30.12,East,96,18.6,18.6,62,0.00,,,0.10,TxWx,2013-05-16 03:44:00,
2013-05-15 23:45:00,74.9,62.0,30.12,ESE,118,13.6,14.2,64,0.00,,,0.10,TxWx,2013-05-16 03:45:00,
2013-05-15 23:49:00,75.1,62.0,30.12,ESE,118,13.0,13.6,65,0.00,,,0.11,TxWx,2013-05-16 03:49:00,
2013-05-15 23:50:00,74.8,62.0,30.12,East,96,18.6,20.4,65,0.00,,,0.11,TxWx,2013-05-16 03:50:00,
2013-05-15 23:51:00,74.9,62.0,30.12,ESE,118,13.6,13.6,63,0.00,,,0.11,TxWx,2013-05-16 03:51:00,
2013-05-15 23:52:00,75.1,63.0,30.12,ESE,118,14.9,14.9,66,0.06,,,0.11,TxWx,2013-05-16 03:52:00,
2013-05-15 23:55:00,74.9,62.0,30.12,ESE,118,15.5,15.5,64,0.06,,,0.11,TxWx,2013-05-16 03:55:00,
2013-05-15 23:56:00,75.0,62.0,30.12,ESE,118,12.4,12.4,65,0.06,,,0.11,TxWx,2013-05-16 03:56:00,
2013-05-15 23:58:00,75.0,62.0,30.12,East,96,13.6,13.6,65,0.06,,,0.11,TxWx,2013-05-16 03:58:00,